﻿<?xml version="1.0" encoding="utf-8"?><gpx creator="Garmin Desktop App" version="1.1" xsi:schemaLocation="http://www.topografix.com/GPX/1/1 http://www.topografix.com/GPX/1/1/gpx.xsd http://www.garmin.com/xmlschemas/WaypointExtension/v1 http://www8.garmin.com/xmlschemas/WaypointExtensionv1.xsd http://www.garmin.com/xmlschemas/TrackPointExtension/v1 http://www.garmin.com/xmlschemas/TrackPointExtensionv1.xsd http://www.garmin.com/xmlschemas/GpxExtensions/v3 http://www8.garmin.com/xmlschemas/GpxExtensionsv3.xsd http://www.garmin.com/xmlschemas/ActivityExtension/v1 http://www8.garmin.com/xmlschemas/ActivityExtensionv1.xsd http://www.garmin.com/xmlschemas/AdventuresExtensions/v1 http://www8.garmin.com/xmlschemas/AdventuresExtensionv1.xsd http://www.garmin.com/xmlschemas/PressureExtension/v1 http://www.garmin.com/xmlschemas/PressureExtensionv1.xsd http://www.garmin.com/xmlschemas/TripExtensions/v1 http://www.garmin.com/xmlschemas/TripExtensionsv1.xsd http://www.garmin.com/xmlschemas/TripMetaDataExtensions/v1 http://www.garmin.com/xmlschemas/TripMetaDataExtensionsv1.xsd http://www.garmin.com/xmlschemas/ViaPointTransportationModeExtensions/v1 http://www.garmin.com/xmlschemas/ViaPointTransportationModeExtensionsv1.xsd http://www.garmin.com/xmlschemas/CreationTimeExtension/v1 http://www.garmin.com/xmlschemas/CreationTimeExtensionsv1.xsd http://www.garmin.com/xmlschemas/AccelerationExtension/v1 http://www.garmin.com/xmlschemas/AccelerationExtensionv1.xsd http://www.garmin.com/xmlschemas/PowerExtension/v1 http://www.garmin.com/xmlschemas/PowerExtensionv1.xsd http://www.garmin.com/xmlschemas/VideoExtension/v1 http://www.garmin.com/xmlschemas/VideoExtensionv1.xsd" xmlns="http://www.topografix.com/GPX/1/1" xmlns:xsi="http://www.w3.org/2001/XMLSchema-instance" xmlns:wptx1="http://www.garmin.com/xmlschemas/WaypointExtension/v1" xmlns:gpxtrx="http://www.garmin.com/xmlschemas/GpxExtensions/v3" xmlns:gpxtpx="http://www.garmin.com/xmlschemas/TrackPointExtension/v1" xmlns:gpxx="http://www.garmin.com/xmlschemas/GpxExtensions/v3" xmlns:trp="http://www.garmin.com/xmlschemas/TripExtensions/v1" xmlns:adv="http://www.garmin.com/xmlschemas/AdventuresExtensions/v1" xmlns:prs="http://www.garmin.com/xmlschemas/PressureExtension/v1" xmlns:tmd="http://www.garmin.com/xmlschemas/TripMetaDataExtensions/v1" xmlns:vptm="http://www.garmin.com/xmlschemas/ViaPointTransportationModeExtensions/v1" xmlns:ctx="http://www.garmin.com/xmlschemas/CreationTimeExtension/v1" xmlns:gpxacc="http://www.garmin.com/xmlschemas/AccelerationExtension/v1" xmlns:gpxpx="http://www.garmin.com/xmlschemas/PowerExtension/v1" xmlns:vidx1="http://www.garmin.com/xmlschemas/VideoExtension/v1">

  <metadata>
    <link href="http://www.garmin.com">
      <text>Garmin International</text>
    </link>
    <time>2025-02-23T16:43:43Z</time>
    <bounds maxlat="46.165948631241918" maxlon="8.196064475923777" minlat="46.151297902688384" minlon="8.149655889719725" />
  </metadata>

  <trk>
    <name>Cima del Tirone2025-02-23</name>
    <extensions>
      <gpxx:TrackExtension>
        <gpxx:DisplayColor>Red</gpxx:DisplayColor>
      </gpxx:TrackExtension>
      <gpxtrkx:TrackStatsExtension xmlns:gpxtrkx="http://www.garmin.com/xmlschemas/TrackStatsExtension/v1">
        <gpxtrkx:Distance>10741</gpxtrkx:Distance>
        <gpxtrkx:TotalElapsedTime>20636</gpxtrkx:TotalElapsedTime>
        <gpxtrkx:MovingTime>12969</gpxtrkx:MovingTime>
        <gpxtrkx:StoppedTime>7659</gpxtrkx:StoppedTime>
        <gpxtrkx:MovingSpeed>0.828</gpxtrkx:MovingSpeed>
        <gpxtrkx:MaxSpeed>3.169</gpxtrkx:MaxSpeed>
        <gpxtrkx:MaxElevation>2210.759</gpxtrkx:MaxElevation>
        <gpxtrkx:MinElevation>1599.175</gpxtrkx:MinElevation>
        <gpxtrkx:Ascent>654</gpxtrkx:Ascent>
        <gpxtrkx:Descent>652</gpxtrkx:Descent>
        <gpxtrkx:AvgAscentRate>0.057</gpxtrkx:AvgAscentRate>
        <gpxtrkx:MaxAscentRate>0.25</gpxtrkx:MaxAscentRate>
        <gpxtrkx:AvgDescentRate>0.086</gpxtrkx:AvgDescentRate>
        <gpxtrkx:MaxDescentRate>-0.502</gpxtrkx:MaxDescentRate>
      </gpxtrkx:TrackStatsExtension>
    </extensions>
    <trkseg>
      <trkpt lat="46.151592945680022" lon="8.196064475923777">
        <ele>1624.5</ele>
        <time>2025-02-23T07:44:38Z</time>
      </trkpt>
      <trkpt lat="46.151611972600222" lon="8.195966323837638">
        <ele>1623.26</ele>
        <time>2025-02-23T07:47:03Z</time>
      </trkpt>
      <trkpt lat="46.151556400582194" lon="8.195908991619945">
        <ele>1623.1900000000001</ele>
        <time>2025-02-23T07:47:28Z</time>
      </trkpt>
      <trkpt lat="46.151502672582865" lon="8.195813354104757">
        <ele>1623.4200000000001</ele>
        <time>2025-02-23T07:47:53Z</time>
      </trkpt>
      <trkpt lat="46.151456655934453" lon="8.19569131359458">
        <ele>1623.3199999999999</ele>
        <time>2025-02-23T07:48:06Z</time>
      </trkpt>
      <trkpt lat="46.151464618742466" lon="8.195628197863698">
        <ele>1623.51</ele>
        <time>2025-02-23T07:48:32Z</time>
      </trkpt>
      <trkpt lat="46.151429917663336" lon="8.195656193420291">
        <ele>1624.1600000000001</ele>
        <time>2025-02-23T07:55:21Z</time>
      </trkpt>
      <trkpt lat="46.151511641219258" lon="8.195570446550846">
        <ele>1624.52</ele>
        <time>2025-02-23T07:55:54Z</time>
      </trkpt>
      <trkpt lat="46.15160602144897" lon="8.195483861491084">
        <ele>1625.3</ele>
        <time>2025-02-23T07:56:04Z</time>
      </trkpt>
      <trkpt lat="46.15169738419354" lon="8.195402137935162">
        <ele>1626.1400000000001</ele>
        <time>2025-02-23T07:56:14Z</time>
      </trkpt>
      <trkpt lat="46.151778353378177" lon="8.195315720513463">
        <ele>1626.75</ele>
        <time>2025-02-23T07:56:24Z</time>
      </trkpt>
      <trkpt lat="46.151877092197537" lon="8.195201978087425">
        <ele>1626.1500000000001</ele>
        <time>2025-02-23T07:56:36Z</time>
      </trkpt>
      <trkpt lat="46.151940627023578" lon="8.195105502381921">
        <ele>1625.25</ele>
        <time>2025-02-23T07:56:47Z</time>
      </trkpt>
      <trkpt lat="46.152030732482672" lon="8.195031071081758">
        <ele>1624.8800000000001</ele>
        <time>2025-02-23T07:56:58Z</time>
      </trkpt>
      <trkpt lat="46.15212544798851" lon="8.194950101897121">
        <ele>1623.25</ele>
        <time>2025-02-23T07:57:07Z</time>
      </trkpt>
      <trkpt lat="46.152148665860295" lon="8.194786654785276">
        <ele>1622.27</ele>
        <time>2025-02-23T07:57:19Z</time>
      </trkpt>
      <trkpt lat="46.152219912037253" lon="8.19480936974287">
        <ele>1620.4000000000001</ele>
        <time>2025-02-23T07:58:20Z</time>
      </trkpt>
      <trkpt lat="46.152269029989839" lon="8.194773746654391">
        <ele>1622.9300000000001</ele>
        <time>2025-02-23T08:05:59Z</time>
      </trkpt>
      <trkpt lat="46.152261905372143" lon="8.194641564041376">
        <ele>1621.75</ele>
        <time>2025-02-23T08:06:16Z</time>
      </trkpt>
      <trkpt lat="46.152290403842926" lon="8.194460179656744">
        <ele>1620.73</ele>
        <time>2025-02-23T08:06:26Z</time>
      </trkpt>
      <trkpt lat="46.152345724403858" lon="8.194321626797319">
        <ele>1619.8299999999999</ele>
        <time>2025-02-23T08:06:37Z</time>
      </trkpt>
      <trkpt lat="46.152392998337746" lon="8.194177206605673">
        <ele>1618.3099999999999</ele>
        <time>2025-02-23T08:06:47Z</time>
      </trkpt>
      <trkpt lat="46.152415880933404" lon="8.194024907425046">
        <ele>1616.4100000000001</ele>
        <time>2025-02-23T08:07:11Z</time>
      </trkpt>
      <trkpt lat="46.152437338605523" lon="8.193867662921548">
        <ele>1615.0599999999999</ele>
        <time>2025-02-23T08:07:21Z</time>
      </trkpt>
      <trkpt lat="46.152455611154437" lon="8.193703712895513">
        <ele>1613.47</ele>
        <time>2025-02-23T08:07:31Z</time>
      </trkpt>
      <trkpt lat="46.152487127110362" lon="8.193561974912882">
        <ele>1611.2</ele>
        <time>2025-02-23T08:07:41Z</time>
      </trkpt>
      <trkpt lat="46.15254077129066" lon="8.193388218060136">
        <ele>1609.5699999999999</ele>
        <time>2025-02-23T08:07:52Z</time>
      </trkpt>
      <trkpt lat="46.152585949748755" lon="8.193223429843783">
        <ele>1608.1700000000001</ele>
        <time>2025-02-23T08:08:03Z</time>
      </trkpt>
      <trkpt lat="46.152617549523711" lon="8.193055791780353">
        <ele>1607.6700000000001</ele>
        <time>2025-02-23T08:08:15Z</time>
      </trkpt>
      <trkpt lat="46.152654010802507" lon="8.192893853411079">
        <ele>1607.8499999999999</ele>
        <time>2025-02-23T08:08:28Z</time>
      </trkpt>
      <trkpt lat="46.152707235887647" lon="8.192747086286545">
        <ele>1608.02</ele>
        <time>2025-02-23T08:08:40Z</time>
      </trkpt>
      <trkpt lat="46.152742691338062" lon="8.192604007199407">
        <ele>1607.47</ele>
        <time>2025-02-23T08:08:52Z</time>
      </trkpt>
      <trkpt lat="46.152783175930381" lon="8.192442068830133">
        <ele>1607.47</ele>
        <time>2025-02-23T08:09:03Z</time>
      </trkpt>
      <trkpt lat="46.152822067961097" lon="8.192289518192411">
        <ele>1606.98</ele>
        <time>2025-02-23T08:09:14Z</time>
      </trkpt>
      <trkpt lat="46.152866743505001" lon="8.19212875328958">
        <ele>1606.6099999999999</ele>
        <time>2025-02-23T08:09:24Z</time>
      </trkpt>
      <trkpt lat="46.152904042974114" lon="8.191974945366383">
        <ele>1606.54</ele>
        <time>2025-02-23T08:09:34Z</time>
      </trkpt>
      <trkpt lat="46.152932289987803" lon="8.191806888207793">
        <ele>1606.1300000000001</ele>
        <time>2025-02-23T08:09:45Z</time>
      </trkpt>
      <trkpt lat="46.152959698811173" lon="8.191620223224163">
        <ele>1606.1800000000001</ele>
        <time>2025-02-23T08:09:57Z</time>
      </trkpt>
      <trkpt lat="46.152939749881625" lon="8.191450657323003">
        <ele>1606.0599999999999</ele>
        <time>2025-02-23T08:10:07Z</time>
      </trkpt>
      <trkpt lat="46.15297612734139" lon="8.191294502466917">
        <ele>1605.8599999999999</ele>
        <time>2025-02-23T08:10:19Z</time>
      </trkpt>
      <trkpt lat="46.153030944988132" lon="8.191075567156076">
        <ele>1606.24</ele>
        <time>2025-02-23T08:10:33Z</time>
      </trkpt>
      <trkpt lat="46.153068579733372" lon="8.190888818353415">
        <ele>1606.51</ele>
        <time>2025-02-23T08:10:45Z</time>
      </trkpt>
      <trkpt lat="46.153122056275606" lon="8.19077130407095">
        <ele>1606.8699999999999</ele>
        <time>2025-02-23T08:10:56Z</time>
      </trkpt>
      <trkpt lat="46.153163043782115" lon="8.190610455349088">
        <ele>1606.9200000000001</ele>
        <time>2025-02-23T08:11:08Z</time>
      </trkpt>
      <trkpt lat="46.15319455973804" lon="8.190474333241582">
        <ele>1606.0899999999999</ele>
        <time>2025-02-23T08:11:20Z</time>
      </trkpt>
      <trkpt lat="46.153201097622514" lon="8.190306527540088">
        <ele>1604.48</ele>
        <time>2025-02-23T08:11:31Z</time>
      </trkpt>
      <trkpt lat="46.153251472860575" lon="8.190122796222568">
        <ele>1603.5999999999999</ele>
        <time>2025-02-23T08:11:43Z</time>
      </trkpt>
      <trkpt lat="46.153253149241209" lon="8.189860945567489">
        <ele>1602.4100000000001</ele>
        <time>2025-02-23T08:11:56Z</time>
      </trkpt>
      <trkpt lat="46.153330514207482" lon="8.189670005813241">
        <ele>1602.3299999999999</ele>
        <time>2025-02-23T08:12:07Z</time>
      </trkpt>
      <trkpt lat="46.153402850031853" lon="8.189480323344469">
        <ele>1602.27</ele>
        <time>2025-02-23T08:12:20Z</time>
      </trkpt>
      <trkpt lat="46.153482981026173" lon="8.189288964495063">
        <ele>1602.05</ele>
        <time>2025-02-23T08:12:34Z</time>
      </trkpt>
      <trkpt lat="46.153483148664236" lon="8.189178155735135">
        <ele>1602.0699999999999</ele>
        <time>2025-02-23T08:12:47Z</time>
      </trkpt>
      <trkpt lat="46.153499661013484" lon="8.188985791057348">
        <ele>1602.6500000000001</ele>
        <time>2025-02-23T08:13:03Z</time>
      </trkpt>
      <trkpt lat="46.153635112568736" lon="8.188654202967882">
        <ele>1603.6600000000001</ele>
        <time>2025-02-23T08:13:21Z</time>
      </trkpt>
      <trkpt lat="46.153762014582753" lon="8.188409619033337">
        <ele>1604.76</ele>
        <time>2025-02-23T08:13:38Z</time>
      </trkpt>
      <trkpt lat="46.153805013746023" lon="8.188183475285769">
        <ele>1605.72</ele>
        <time>2025-02-23T08:13:55Z</time>
      </trkpt>
      <trkpt lat="46.153883384540677" lon="8.187994044274092">
        <ele>1606.24</ele>
        <time>2025-02-23T08:14:09Z</time>
      </trkpt>
      <trkpt lat="46.153953457251191" lon="8.187823221087456">
        <ele>1606.73</ele>
        <time>2025-02-23T08:14:24Z</time>
      </trkpt>
      <trkpt lat="46.15400810725987" lon="8.187626078724861">
        <ele>1607.0899999999999</ele>
        <time>2025-02-23T08:14:39Z</time>
      </trkpt>
      <trkpt lat="46.154044819995761" lon="8.187427511438727">
        <ele>1607</ele>
        <time>2025-02-23T08:14:52Z</time>
      </trkpt>
      <trkpt lat="46.154074408113956" lon="8.187238499522209">
        <ele>1606.8299999999999</ele>
        <time>2025-02-23T08:15:04Z</time>
      </trkpt>
      <trkpt lat="46.154114305973053" lon="8.187082512304187">
        <ele>1606.97</ele>
        <time>2025-02-23T08:15:18Z</time>
      </trkpt>
      <trkpt lat="46.154186557978392" lon="8.186920657753944">
        <ele>1608.1099999999999</ele>
        <time>2025-02-23T08:15:31Z</time>
      </trkpt>
      <trkpt lat="46.154218157753348" lon="8.186726029962301">
        <ele>1609.1900000000001</ele>
        <time>2025-02-23T08:15:46Z</time>
      </trkpt>
      <trkpt lat="46.154230562970042" lon="8.186566103249788">
        <ele>1608.4100000000001</ele>
        <time>2025-02-23T08:15:59Z</time>
      </trkpt>
      <trkpt lat="46.154281441122293" lon="8.186407182365656">
        <ele>1607.3800000000001</ele>
        <time>2025-02-23T08:16:10Z</time>
      </trkpt>
      <trkpt lat="46.154339108616114" lon="8.186287740245462">
        <ele>1606.8199999999999</ele>
        <time>2025-02-23T08:16:21Z</time>
      </trkpt>
      <trkpt lat="46.154411109164357" lon="8.186163855716586">
        <ele>1606.05</ele>
        <time>2025-02-23T08:16:32Z</time>
      </trkpt>
      <trkpt lat="46.154478080570698" lon="8.186043491587043">
        <ele>1605.1700000000001</ele>
        <time>2025-02-23T08:16:43Z</time>
      </trkpt>
      <trkpt lat="46.154547818005085" lon="8.185860347002745">
        <ele>1604.9400000000001</ele>
        <time>2025-02-23T08:16:55Z</time>
      </trkpt>
      <trkpt lat="46.154608419165015" lon="8.185722297057509">
        <ele>1604.99</ele>
        <time>2025-02-23T08:17:06Z</time>
      </trkpt>
      <trkpt lat="46.154680922627449" lon="8.185599837452173">
        <ele>1604.8599999999999</ele>
        <time>2025-02-23T08:17:16Z</time>
      </trkpt>
      <trkpt lat="46.154751749709249" lon="8.185500176623464">
        <ele>1604.45</ele>
        <time>2025-02-23T08:17:27Z</time>
      </trkpt>
      <trkpt lat="46.154818888753653" lon="8.185368329286575">
        <ele>1602.3599999999999</ele>
        <time>2025-02-23T08:17:37Z</time>
      </trkpt>
      <trkpt lat="46.154896169900894" lon="8.185213264077902">
        <ele>1600.73</ele>
        <time>2025-02-23T08:17:48Z</time>
      </trkpt>
      <trkpt lat="46.154963811859488" lon="8.185100695118308">
        <ele>1599.3800000000001</ele>
        <time>2025-02-23T08:17:56Z</time>
      </trkpt>
      <trkpt lat="46.155028017237782" lon="8.184965578839183">
        <ele>1599.5699999999999</ele>
        <time>2025-02-23T08:18:07Z</time>
      </trkpt>
      <trkpt lat="46.155116278678179" lon="8.184862649068236">
        <ele>1599.78</ele>
        <time>2025-02-23T08:18:17Z</time>
      </trkpt>
      <trkpt lat="46.155212335288525" lon="8.184780171141028">
        <ele>1599.6700000000001</ele>
        <time>2025-02-23T08:18:26Z</time>
      </trkpt>
      <trkpt lat="46.155330268666148" lon="8.184746978804469">
        <ele>1599.8099999999999</ele>
        <time>2025-02-23T08:18:36Z</time>
      </trkpt>
      <trkpt lat="46.155430600047112" lon="8.184821242466569">
        <ele>1600.0999999999999</ele>
        <time>2025-02-23T08:18:46Z</time>
      </trkpt>
      <trkpt lat="46.155440909788013" lon="8.184937834739685">
        <ele>1599.95</ele>
        <time>2025-02-23T08:18:56Z</time>
      </trkpt>
      <trkpt lat="46.155374441295862" lon="8.185017379000783">
        <ele>1600.0799999999999</ele>
        <time>2025-02-23T08:19:16Z</time>
      </trkpt>
      <trkpt lat="46.155346278101206" lon="8.185130702331662">
        <ele>1599.9100000000001</ele>
        <time>2025-02-23T08:19:53Z</time>
      </trkpt>
      <trkpt lat="46.155326748266816" lon="8.185265734791756">
        <ele>1599.8599999999999</ele>
        <time>2025-02-23T08:20:04Z</time>
      </trkpt>
      <trkpt lat="46.155309397727251" lon="8.185397163033485">
        <ele>1601.1800000000001</ele>
        <time>2025-02-23T08:20:15Z</time>
      </trkpt>
      <trkpt lat="46.155317528173327" lon="8.185530938208103">
        <ele>1603.3900000000001</ele>
        <time>2025-02-23T08:20:29Z</time>
      </trkpt>
      <trkpt lat="46.155350301414728" lon="8.185690864920616">
        <ele>1605.76</ele>
        <time>2025-02-23T08:20:45Z</time>
      </trkpt>
      <trkpt lat="46.155383493751287" lon="8.185828663408756">
        <ele>1609.3299999999999</ele>
        <time>2025-02-23T08:21:02Z</time>
      </trkpt>
      <trkpt lat="46.155435796827078" lon="8.185986075550318">
        <ele>1611.1800000000001</ele>
        <time>2025-02-23T08:21:18Z</time>
      </trkpt>
      <trkpt lat="46.155486423522234" lon="8.186148181557655">
        <ele>1613.1300000000001</ele>
        <time>2025-02-23T08:21:35Z</time>
      </trkpt>
      <trkpt lat="46.155511736869812" lon="8.18629939109087">
        <ele>1615.1600000000001</ele>
        <time>2025-02-23T08:21:50Z</time>
      </trkpt>
      <trkpt lat="46.155565967783332" lon="8.186428220942617">
        <ele>1617.48</ele>
        <time>2025-02-23T08:22:06Z</time>
      </trkpt>
      <trkpt lat="46.155527411028743" lon="8.186328895390034">
        <ele>1619.75</ele>
        <time>2025-02-23T08:22:24Z</time>
      </trkpt>
      <trkpt lat="46.155540822073817" lon="8.18618799559772">
        <ele>1621.04</ele>
        <time>2025-02-23T08:22:41Z</time>
      </trkpt>
      <trkpt lat="46.155574433505535" lon="8.186074420809746">
        <ele>1622.7</ele>
        <time>2025-02-23T08:22:56Z</time>
      </trkpt>
      <trkpt lat="46.155621455982327" lon="8.185965120792389">
        <ele>1624.95</ele>
        <time>2025-02-23T08:23:13Z</time>
      </trkpt>
      <trkpt lat="46.155681889504194" lon="8.185829250141978">
        <ele>1627.5699999999999</ele>
        <time>2025-02-23T08:23:32Z</time>
      </trkpt>
      <trkpt lat="46.155731258913875" lon="8.185684997588396">
        <ele>1629.0899999999999</ele>
        <time>2025-02-23T08:23:46Z</time>
      </trkpt>
      <trkpt lat="46.155794877558947" lon="8.185551641508937">
        <ele>1631.71</ele>
        <time>2025-02-23T08:24:03Z</time>
      </trkpt>
      <trkpt lat="46.155889509245753" lon="8.185502272099257">
        <ele>1633.8599999999999</ele>
        <time>2025-02-23T08:24:19Z</time>
      </trkpt>
      <trkpt lat="46.15591331385076" lon="8.185640992596746">
        <ele>1636.25</ele>
        <time>2025-02-23T08:24:37Z</time>
      </trkpt>
      <trkpt lat="46.155936783179641" lon="8.185781054198742">
        <ele>1637.4400000000001</ele>
        <time>2025-02-23T08:24:51Z</time>
      </trkpt>
      <trkpt lat="46.155950613319874" lon="8.18592363037169">
        <ele>1638.99</ele>
        <time>2025-02-23T08:25:05Z</time>
      </trkpt>
      <trkpt lat="46.156006939709187" lon="8.186053549870849">
        <ele>1640.3900000000001</ele>
        <time>2025-02-23T08:25:19Z</time>
      </trkpt>
      <trkpt lat="46.156052872538567" lon="8.186205765232444">
        <ele>1641.6300000000001</ele>
        <time>2025-02-23T08:25:33Z</time>
      </trkpt>
      <trkpt lat="46.156101152300835" lon="8.186347587034106">
        <ele>1643.1199999999999</ele>
        <time>2025-02-23T08:25:47Z</time>
      </trkpt>
      <trkpt lat="46.156143983826041" lon="8.186470214277506">
        <ele>1644.5699999999999</ele>
        <time>2025-02-23T08:26:00Z</time>
      </trkpt>
      <trkpt lat="46.156225875020027" lon="8.186487313359976">
        <ele>1646.48</ele>
        <time>2025-02-23T08:26:13Z</time>
      </trkpt>
      <trkpt lat="46.156188827008009" lon="8.186386143788695">
        <ele>1649.03</ele>
        <time>2025-02-23T08:26:28Z</time>
      </trkpt>
      <trkpt lat="46.156204249709845" lon="8.186257230117917">
        <ele>1651.3800000000001</ele>
        <time>2025-02-23T08:26:46Z</time>
      </trkpt>
      <trkpt lat="46.156242303550243" lon="8.186123287305236">
        <ele>1654.48</ele>
        <time>2025-02-23T08:27:05Z</time>
      </trkpt>
      <trkpt lat="46.156307850033045" lon="8.185978531837463">
        <ele>1656.4100000000001</ele>
        <time>2025-02-23T08:27:22Z</time>
      </trkpt>
      <trkpt lat="46.15636920556426" lon="8.185827992856503">
        <ele>1658.5699999999999</ele>
        <time>2025-02-23T08:27:38Z</time>
      </trkpt>
      <trkpt lat="46.156406085938215" lon="8.185707461088896">
        <ele>1660.47</ele>
        <time>2025-02-23T08:27:54Z</time>
      </trkpt>
      <trkpt lat="46.15646350197494" lon="8.18556840531528">
        <ele>1662.9300000000001</ele>
        <time>2025-02-23T08:28:12Z</time>
      </trkpt>
      <trkpt lat="46.156523348763585" lon="8.185449382290244">
        <ele>1664.8</ele>
        <time>2025-02-23T08:28:27Z</time>
      </trkpt>
      <trkpt lat="46.156550170853734" lon="8.185341591015458">
        <ele>1667.5699999999999</ele>
        <time>2025-02-23T08:28:48Z</time>
      </trkpt>
      <trkpt lat="46.156599540263414" lon="8.185443598777056">
        <ele>1668.6300000000001</ele>
        <time>2025-02-23T08:29:08Z</time>
      </trkpt>
      <trkpt lat="46.156638683751225" lon="8.185656163841486">
        <ele>1671.2</ele>
        <time>2025-02-23T08:29:28Z</time>
      </trkpt>
      <trkpt lat="46.15670976229012" lon="8.185804607346654">
        <ele>1673.8</ele>
        <time>2025-02-23T08:29:44Z</time>
      </trkpt>
      <trkpt lat="46.156781846657395" lon="8.185735875740647">
        <ele>1676.45</ele>
        <time>2025-02-23T08:30:04Z</time>
      </trkpt>
      <trkpt lat="46.15678746253252" lon="8.185626910999417">
        <ele>1678.79</ele>
        <time>2025-02-23T08:30:19Z</time>
      </trkpt>
      <trkpt lat="46.156859882175922" lon="8.185571003705263">
        <ele>1681.77</ele>
        <time>2025-02-23T08:30:38Z</time>
      </trkpt>
      <trkpt lat="46.156934564933181" lon="8.185636634007096">
        <ele>1683.9000000000001</ele>
        <time>2025-02-23T08:30:55Z</time>
      </trkpt>
      <trkpt lat="46.157016456127167" lon="8.185766972601414">
        <ele>1686.6099999999999</ele>
        <time>2025-02-23T08:31:10Z</time>
      </trkpt>
      <trkpt lat="46.157121229916811" lon="8.185794549062848">
        <ele>1688.8599999999999</ele>
        <time>2025-02-23T08:31:28Z</time>
      </trkpt>
      <trkpt lat="46.157130282372236" lon="8.185670748353005">
        <ele>1691.05</ele>
        <time>2025-02-23T08:31:45Z</time>
      </trkpt>
      <trkpt lat="46.157134724780917" lon="8.185522221028805">
        <ele>1693.03</ele>
        <time>2025-02-23T08:32:03Z</time>
      </trkpt>
      <trkpt lat="46.157135395333171" lon="8.185361456125975">
        <ele>1695.26</ele>
        <time>2025-02-23T08:32:19Z</time>
      </trkpt>
      <trkpt lat="46.157192308455706" lon="8.185254838317633">
        <ele>1697.6800000000001</ele>
        <time>2025-02-23T08:32:41Z</time>
      </trkpt>
      <trkpt lat="46.157286604866385" lon="8.185187615454197">
        <ele>1700.22</ele>
        <time>2025-02-23T08:32:59Z</time>
      </trkpt>
      <trkpt lat="46.157302865758538" lon="8.185044955462217">
        <ele>1702.0999999999999</ele>
        <time>2025-02-23T08:33:13Z</time>
      </trkpt>
      <trkpt lat="46.157255759462714" lon="8.184895841404796">
        <ele>1704.01</ele>
        <time>2025-02-23T08:33:27Z</time>
      </trkpt>
      <trkpt lat="46.157273361459374" lon="8.184755695983768">
        <ele>1705.9400000000001</ele>
        <time>2025-02-23T08:33:41Z</time>
      </trkpt>
      <trkpt lat="46.157363969832659" lon="8.184678666293621">
        <ele>1708.23</ele>
        <time>2025-02-23T08:33:55Z</time>
      </trkpt>
      <trkpt lat="46.157463463023305" lon="8.184631811454892">
        <ele>1710.0799999999999</ele>
        <time>2025-02-23T08:34:08Z</time>
      </trkpt>
      <trkpt lat="46.157541079446673" lon="8.18457305431366">
        <ele>1712.0699999999999</ele>
        <time>2025-02-23T08:34:22Z</time>
      </trkpt>
      <trkpt lat="46.157587179914117" lon="8.184480266645551">
        <ele>1713.74</ele>
        <time>2025-02-23T08:34:36Z</time>
      </trkpt>
      <trkpt lat="46.157625485211611" lon="8.184375409036875">
        <ele>1715.3499999999999</ele>
        <time>2025-02-23T08:34:49Z</time>
      </trkpt>
      <trkpt lat="46.1576191149652" lon="8.184283878654242">
        <ele>1716.78</ele>
        <time>2025-02-23T08:35:09Z</time>
      </trkpt>
      <trkpt lat="46.157591957598925" lon="8.184223612770438">
        <ele>1718.1300000000001</ele>
        <time>2025-02-23T08:39:09Z</time>
      </trkpt>
      <trkpt lat="46.157634789124131" lon="8.184250853955746">
        <ele>1718.46</ele>
        <time>2025-02-23T08:40:14Z</time>
      </trkpt>
      <trkpt lat="46.157624227926135" lon="8.18429846316576">
        <ele>1720.8800000000001</ele>
        <time>2025-02-23T08:46:59Z</time>
      </trkpt>
      <trkpt lat="46.15772707387805" lon="8.184329308569431">
        <ele>1723.1500000000001</ele>
        <time>2025-02-23T08:47:15Z</time>
      </trkpt>
      <trkpt lat="46.157811228185892" lon="8.184434669092298">
        <ele>1726.1500000000001</ele>
        <time>2025-02-23T08:47:33Z</time>
      </trkpt>
      <trkpt lat="46.157903345301747" lon="8.184523349627852">
        <ele>1728.25</ele>
        <time>2025-02-23T08:47:48Z</time>
      </trkpt>
      <trkpt lat="46.157999569550157" lon="8.184504825621843">
        <ele>1731.0699999999999</ele>
        <time>2025-02-23T08:48:06Z</time>
      </trkpt>
      <trkpt lat="46.158061847090721" lon="8.18438395857811">
        <ele>1732.0999999999999</ele>
        <time>2025-02-23T08:48:18Z</time>
      </trkpt>
      <trkpt lat="46.158132255077362" lon="8.184298044070602">
        <ele>1733.49</ele>
        <time>2025-02-23T08:48:30Z</time>
      </trkpt>
      <trkpt lat="46.158231580629945" lon="8.184303576126695">
        <ele>1735.3800000000001</ele>
        <time>2025-02-23T08:48:44Z</time>
      </trkpt>
      <trkpt lat="46.158327301964164" lon="8.184340791776776">
        <ele>1736.8800000000001</ele>
        <time>2025-02-23T08:48:57Z</time>
      </trkpt>
      <trkpt lat="46.158436685800552" lon="8.184357471764088">
        <ele>1737.96</ele>
        <time>2025-02-23T08:49:11Z</time>
      </trkpt>
      <trkpt lat="46.158541543409228" lon="8.184380773454905">
        <ele>1740.28</ele>
        <time>2025-02-23T08:49:31Z</time>
      </trkpt>
      <trkpt lat="46.158656040206552" lon="8.184420922771096">
        <ele>1742.6500000000001</ele>
        <time>2025-02-23T08:49:50Z</time>
      </trkpt>
      <trkpt lat="46.15876886062324" lon="8.184410277754068">
        <ele>1744.72</ele>
        <time>2025-02-23T08:50:05Z</time>
      </trkpt>
      <trkpt lat="46.158842202275991" lon="8.184296870604157">
        <ele>1746.25</ele>
        <time>2025-02-23T08:50:17Z</time>
      </trkpt>
      <trkpt lat="46.158841196447611" lon="8.184173908084631">
        <ele>1748.1400000000001</ele>
        <time>2025-02-23T08:50:31Z</time>
      </trkpt>
      <trkpt lat="46.158837676048279" lon="8.184014819562435">
        <ele>1749.79</ele>
        <time>2025-02-23T08:50:45Z</time>
      </trkpt>
      <trkpt lat="46.158872880041599" lon="8.183899652212858">
        <ele>1752.05</ele>
        <time>2025-02-23T08:51:01Z</time>
      </trkpt>
      <trkpt lat="46.158918561413884" lon="8.183771660551429">
        <ele>1754.5</ele>
        <time>2025-02-23T08:51:17Z</time>
      </trkpt>
      <trkpt lat="46.158983018249273" lon="8.183657163754106">
        <ele>1756.74</ele>
        <time>2025-02-23T08:51:32Z</time>
      </trkpt>
      <trkpt lat="46.159036494791508" lon="8.183529758825898">
        <ele>1758.76</ele>
        <time>2025-02-23T08:51:47Z</time>
      </trkpt>
      <trkpt lat="46.159129617735744" lon="8.183430600911379">
        <ele>1761.1800000000001</ele>
        <time>2025-02-23T08:52:05Z</time>
      </trkpt>
      <trkpt lat="46.159228943288326" lon="8.183370251208544">
        <ele>1762.6900000000001</ele>
        <time>2025-02-23T08:52:16Z</time>
      </trkpt>
      <trkpt lat="46.159311253577471" lon="8.183455327525735">
        <ele>1763.97</ele>
        <time>2025-02-23T08:52:27Z</time>
      </trkpt>
      <trkpt lat="46.159394066780806" lon="8.183563034981489">
        <ele>1765.3399999999999</ele>
        <time>2025-02-23T08:52:41Z</time>
      </trkpt>
      <trkpt lat="46.159478975459933" lon="8.183688847348094">
        <ele>1767.3900000000001</ele>
        <time>2025-02-23T08:52:57Z</time>
      </trkpt>
      <trkpt lat="46.159543599933386" lon="8.18381130695343">
        <ele>1769.53</ele>
        <time>2025-02-23T08:53:13Z</time>
      </trkpt>
      <trkpt lat="46.159626077860594" lon="8.183922618627548">
        <ele>1771.46</ele>
        <time>2025-02-23T08:53:29Z</time>
      </trkpt>
      <trkpt lat="46.159694893285632" lon="8.183819688856602">
        <ele>1774</ele>
        <time>2025-02-23T08:53:47Z</time>
      </trkpt>
      <trkpt lat="46.159745184704661" lon="8.183680465444922">
        <ele>1776.24</ele>
        <time>2025-02-23T08:54:05Z</time>
      </trkpt>
      <trkpt lat="46.159816598519683" lon="8.183502601459622">
        <ele>1778.77</ele>
        <time>2025-02-23T08:54:24Z</time>
      </trkpt>
      <trkpt lat="46.159873260185122" lon="8.183359941467643">
        <ele>1780.4200000000001</ele>
        <time>2025-02-23T08:54:39Z</time>
      </trkpt>
      <trkpt lat="46.159936878830194" lon="8.183206720277667">
        <ele>1782.6800000000001</ele>
        <time>2025-02-23T08:54:54Z</time>
      </trkpt>
      <trkpt lat="46.159999575465918" lon="8.183076549321413">
        <ele>1784.8599999999999</ele>
        <time>2025-02-23T08:55:12Z</time>
      </trkpt>
      <trkpt lat="46.160032516345382" lon="8.182939505204558">
        <ele>1787.8399999999999</ele>
        <time>2025-02-23T08:55:30Z</time>
      </trkpt>
      <trkpt lat="46.160094626247883" lon="8.182731801643968">
        <ele>1789.3599999999999</ele>
        <time>2025-02-23T08:55:45Z</time>
      </trkpt>
      <trkpt lat="46.160140642896295" lon="8.182607833296061">
        <ele>1790.8499999999999</ele>
        <time>2025-02-23T08:56:00Z</time>
      </trkpt>
      <trkpt lat="46.160205183550715" lon="8.182488810271025">
        <ele>1792.76</ele>
        <time>2025-02-23T08:56:16Z</time>
      </trkpt>
      <trkpt lat="46.160272322595119" lon="8.182351514697075">
        <ele>1793.9100000000001</ele>
        <time>2025-02-23T08:56:30Z</time>
      </trkpt>
      <trkpt lat="46.160334851592779" lon="8.182250680401921">
        <ele>1795.5999999999999</ele>
        <time>2025-02-23T08:56:42Z</time>
      </trkpt>
      <trkpt lat="46.160395536571741" lon="8.182156132534146">
        <ele>1797.26</ele>
        <time>2025-02-23T08:56:55Z</time>
      </trkpt>
      <trkpt lat="46.1604770924896" lon="8.182083042338491">
        <ele>1799.4100000000001</ele>
        <time>2025-02-23T08:57:10Z</time>
      </trkpt>
      <trkpt lat="46.160569628700614" lon="8.181997546926141">
        <ele>1800.9100000000001</ele>
        <time>2025-02-23T08:57:27Z</time>
      </trkpt>
      <trkpt lat="46.16063685156405" lon="8.181877434253693">
        <ele>1802.0899999999999</ele>
        <time>2025-02-23T08:57:40Z</time>
      </trkpt>
      <trkpt lat="46.160684963688254" lon="8.181744497269392">
        <ele>1803.23</ele>
        <time>2025-02-23T08:57:54Z</time>
      </trkpt>
      <trkpt lat="46.160746151581407" lon="8.181635113433003">
        <ele>1803.8199999999999</ele>
        <time>2025-02-23T08:58:13Z</time>
      </trkpt>
      <trkpt lat="46.160809015855193" lon="8.181515000760555">
        <ele>1804.5999999999999</ele>
        <time>2025-02-23T08:58:26Z</time>
      </trkpt>
      <trkpt lat="46.160852601751685" lon="8.181382901966572">
        <ele>1805.49</ele>
        <time>2025-02-23T08:58:40Z</time>
      </trkpt>
      <trkpt lat="46.160881267860532" lon="8.181242505088449">
        <ele>1807.02</ele>
        <time>2025-02-23T08:58:54Z</time>
      </trkpt>
      <trkpt lat="46.160920662805438" lon="8.181108981370926">
        <ele>1808.4200000000001</ele>
        <time>2025-02-23T08:59:07Z</time>
      </trkpt>
      <trkpt lat="46.160959135740995" lon="8.180998675525188">
        <ele>1809.3800000000001</ele>
        <time>2025-02-23T08:59:36Z</time>
      </trkpt>
      <trkpt lat="46.160998614504933" lon="8.180866660550237">
        <ele>1810.8699999999999</ele>
        <time>2025-02-23T08:59:47Z</time>
      </trkpt>
      <trkpt lat="46.161011857911944" lon="8.180725006386638">
        <ele>1811.97</ele>
        <time>2025-02-23T09:00:00Z</time>
      </trkpt>
      <trkpt lat="46.161055276170373" lon="8.180580753833056">
        <ele>1813.48</ele>
        <time>2025-02-23T09:00:13Z</time>
      </trkpt>
      <trkpt lat="46.161094000563025" lon="8.180432561784983">
        <ele>1814.72</ele>
        <time>2025-02-23T09:00:26Z</time>
      </trkpt>
      <trkpt lat="46.161172538995743" lon="8.180273808538914">
        <ele>1815.51</ele>
        <time>2025-02-23T09:00:41Z</time>
      </trkpt>
      <trkpt lat="46.161268763244152" lon="8.180155958980322">
        <ele>1816.8699999999999</ele>
        <time>2025-02-23T09:00:55Z</time>
      </trkpt>
      <trkpt lat="46.16132777184248" lon="8.180032409727573">
        <ele>1818.3299999999999</ele>
        <time>2025-02-23T09:01:08Z</time>
      </trkpt>
      <trkpt lat="46.161387953907251" lon="8.179901819676161">
        <ele>1820.1199999999999</ele>
        <time>2025-02-23T09:01:23Z</time>
      </trkpt>
      <trkpt lat="46.161446124315262" lon="8.179777767509222">
        <ele>1821.5799999999999</ele>
        <time>2025-02-23T09:01:36Z</time>
      </trkpt>
      <trkpt lat="46.161504378542304" lon="8.179632090032101">
        <ele>1822.8099999999999</ele>
        <time>2025-02-23T09:01:49Z</time>
      </trkpt>
      <trkpt lat="46.161550311371684" lon="8.179514827206731">
        <ele>1823.71</ele>
        <time>2025-02-23T09:02:01Z</time>
      </trkpt>
      <trkpt lat="46.161587359383702" lon="8.179381722584367">
        <ele>1825.05</ele>
        <time>2025-02-23T09:02:15Z</time>
      </trkpt>
      <trkpt lat="46.161622647196054" lon="8.179244175553322">
        <ele>1825.96</ele>
        <time>2025-02-23T09:02:29Z</time>
      </trkpt>
      <trkpt lat="46.16167570464313" lon="8.179112998768687">
        <ele>1826.9000000000001</ele>
        <time>2025-02-23T09:02:41Z</time>
      </trkpt>
      <trkpt lat="46.161704119294882" lon="8.178976541385055">
        <ele>1827.8800000000001</ele>
        <time>2025-02-23T09:02:54Z</time>
      </trkpt>
      <trkpt lat="46.161721721291542" lon="8.178836144506931">
        <ele>1828.27</ele>
        <time>2025-02-23T09:03:05Z</time>
      </trkpt>
      <trkpt lat="46.161728762090206" lon="8.178674122318626">
        <ele>1828.6700000000001</ele>
        <time>2025-02-23T09:03:16Z</time>
      </trkpt>
      <trkpt lat="46.161809312179685" lon="8.17855367437005">
        <ele>1829.48</ele>
        <time>2025-02-23T09:03:29Z</time>
      </trkpt>
      <trkpt lat="46.16181006655097" lon="8.178441189229488">
        <ele>1830.4100000000001</ele>
        <time>2025-02-23T09:03:43Z</time>
      </trkpt>
      <trkpt lat="46.161696827039123" lon="8.178397184237838">
        <ele>1831.0699999999999</ele>
        <time>2025-02-23T09:04:00Z</time>
      </trkpt>
      <trkpt lat="46.16166589781642" lon="8.178290231153369">
        <ele>1832.4100000000001</ele>
        <time>2025-02-23T09:04:17Z</time>
      </trkpt>
      <trkpt lat="46.161701185628772" lon="8.178181350231171">
        <ele>1833.9400000000001</ele>
        <time>2025-02-23T09:04:30Z</time>
      </trkpt>
      <trkpt lat="46.161711411550641" lon="8.178027626127005">
        <ele>1834.8099999999999</ele>
        <time>2025-02-23T09:04:45Z</time>
      </trkpt>
      <trkpt lat="46.161707723513246" lon="8.177888654172421">
        <ele>1835.5699999999999</ele>
        <time>2025-02-23T09:04:58Z</time>
      </trkpt>
      <trkpt lat="46.161694144830108" lon="8.177766529843211">
        <ele>1836.3800000000001</ele>
        <time>2025-02-23T09:05:10Z</time>
      </trkpt>
      <trkpt lat="46.161671346053481" lon="8.177624708041549">
        <ele>1836.8900000000001</ele>
        <time>2025-02-23T09:05:22Z</time>
      </trkpt>
      <trkpt lat="46.161660365760326" lon="8.177488837391138">
        <ele>1838.3800000000001</ele>
        <time>2025-02-23T09:05:37Z</time>
      </trkpt>
      <trkpt lat="46.161660868674517" lon="8.17734332755208">
        <ele>1839.0799999999999</ele>
        <time>2025-02-23T09:05:49Z</time>
      </trkpt>
      <trkpt lat="46.161670340225101" lon="8.177189854905009">
        <ele>1839.6199999999999</ele>
        <time>2025-02-23T09:06:01Z</time>
      </trkpt>
      <trkpt lat="46.161702694371343" lon="8.177049793303013">
        <ele>1840.3199999999999</ele>
        <time>2025-02-23T09:06:14Z</time>
      </trkpt>
      <trkpt lat="46.161725493147969" lon="8.176908390596509">
        <ele>1841.02</ele>
        <time>2025-02-23T09:06:26Z</time>
      </trkpt>
      <trkpt lat="46.161787770688534" lon="8.176801856607199">
        <ele>1841.78</ele>
        <time>2025-02-23T09:06:39Z</time>
      </trkpt>
      <trkpt lat="46.161844683811069" lon="8.176683755591512">
        <ele>1842.74</ele>
        <time>2025-02-23T09:06:52Z</time>
      </trkpt>
      <trkpt lat="46.161921378225088" lon="8.176586525514722">
        <ele>1844.3199999999999</ele>
        <time>2025-02-23T09:07:07Z</time>
      </trkpt>
      <trkpt lat="46.161960773169994" lon="8.176427436992526">
        <ele>1846.05</ele>
        <time>2025-02-23T09:07:21Z</time>
      </trkpt>
      <trkpt lat="46.162010813131928" lon="8.176291901618242">
        <ele>1847.55</ele>
        <time>2025-02-23T09:07:36Z</time>
      </trkpt>
      <trkpt lat="46.162051884457469" lon="8.176192743703723">
        <ele>1849.1900000000001</ele>
        <time>2025-02-23T09:07:51Z</time>
      </trkpt>
      <trkpt lat="46.162110473960638" lon="8.176099201664329">
        <ele>1850.3699999999999</ele>
        <time>2025-02-23T09:08:04Z</time>
      </trkpt>
      <trkpt lat="46.162174511700869" lon="8.176006833091378">
        <ele>1851.73</ele>
        <time>2025-02-23T09:08:18Z</time>
      </trkpt>
      <trkpt lat="46.162251206114888" lon="8.175894180312753">
        <ele>1853.1500000000001</ele>
        <time>2025-02-23T09:08:36Z</time>
      </trkpt>
      <trkpt lat="46.16232261992991" lon="8.175780521705747">
        <ele>1854.3900000000001</ele>
        <time>2025-02-23T09:08:50Z</time>
      </trkpt>
      <trkpt lat="46.162393530830741" lon="8.175672059878707">
        <ele>1856.53</ele>
        <time>2025-02-23T09:09:08Z</time>
      </trkpt>
      <trkpt lat="46.162421610206366" lon="8.175533674657345">
        <ele>1857.29</ele>
        <time>2025-02-23T09:09:21Z</time>
      </trkpt>
      <trkpt lat="46.162431249395013" lon="8.175375089049339">
        <ele>1859.1300000000001</ele>
        <time>2025-02-23T09:09:35Z</time>
      </trkpt>
      <trkpt lat="46.162417335435748" lon="8.175238631665707">
        <ele>1860.6500000000001</ele>
        <time>2025-02-23T09:09:48Z</time>
      </trkpt>
      <trkpt lat="46.162424376234412" lon="8.175101336091757">
        <ele>1862.1900000000001</ele>
        <time>2025-02-23T09:10:03Z</time>
      </trkpt>
      <trkpt lat="46.162444073706865" lon="8.174961693584919">
        <ele>1863.0699999999999</ele>
        <time>2025-02-23T09:10:16Z</time>
      </trkpt>
      <trkpt lat="46.162443738430738" lon="8.174799000844359">
        <ele>1863.8099999999999</ele>
        <time>2025-02-23T09:10:29Z</time>
      </trkpt>
      <trkpt lat="46.16245849058032" lon="8.174662040546536">
        <ele>1864.78</ele>
        <time>2025-02-23T09:10:42Z</time>
      </trkpt>
      <trkpt lat="46.162478439509869" lon="8.174522733315826">
        <ele>1866.05</ele>
        <time>2025-02-23T09:10:56Z</time>
      </trkpt>
      <trkpt lat="46.162510542199016" lon="8.174365153536201">
        <ele>1867.75</ele>
        <time>2025-02-23T09:11:09Z</time>
      </trkpt>
      <trkpt lat="46.162536023184657" lon="8.174233054742217">
        <ele>1868.78</ele>
        <time>2025-02-23T09:11:21Z</time>
      </trkpt>
      <trkpt lat="46.16252638399601" lon="8.174092154949904">
        <ele>1870.48</ele>
        <time>2025-02-23T09:11:35Z</time>
      </trkpt>
      <trkpt lat="46.162517750635743" lon="8.173982352018356">
        <ele>1872</ele>
        <time>2025-02-23T09:11:48Z</time>
      </trkpt>
      <trkpt lat="46.162521941587329" lon="8.173833405598998">
        <ele>1873.4300000000001</ele>
        <time>2025-02-23T09:12:01Z</time>
      </trkpt>
      <trkpt lat="46.162579273805022" lon="8.173709269613028">
        <ele>1874.71</ele>
        <time>2025-02-23T09:12:16Z</time>
      </trkpt>
      <trkpt lat="46.162639204412699" lon="8.173571387305856">
        <ele>1876.3900000000001</ele>
        <time>2025-02-23T09:12:33Z</time>
      </trkpt>
      <trkpt lat="46.162694022059441" lon="8.173455633223057">
        <ele>1877.77</ele>
        <time>2025-02-23T09:12:47Z</time>
      </trkpt>
      <trkpt lat="46.162749342620373" lon="8.173330742865801">
        <ele>1880.0899999999999</ele>
        <time>2025-02-23T09:13:04Z</time>
      </trkpt>
      <trkpt lat="46.162821594625711" lon="8.173227393999696">
        <ele>1881.8299999999999</ele>
        <time>2025-02-23T09:13:17Z</time>
      </trkpt>
      <trkpt lat="46.162832491099834" lon="8.1732461694628">
        <ele>1882.4200000000001</ele>
        <time>2025-02-23T09:13:44Z</time>
      </trkpt>
      <trkpt lat="46.162843639031053" lon="8.173268213868141">
        <ele>1881.79</ele>
        <time>2025-02-23T09:14:58Z</time>
      </trkpt>
      <trkpt lat="46.162844309583306" lon="8.173228483647108">
        <ele>1881.9100000000001</ele>
        <time>2025-02-23T09:16:16Z</time>
      </trkpt>
      <trkpt lat="46.162898624315858" lon="8.17309177480638">
        <ele>1883.95</ele>
        <time>2025-02-23T09:16:35Z</time>
      </trkpt>
      <trkpt lat="46.162964086979628" lon="8.172951797023416">
        <ele>1885.8</ele>
        <time>2025-02-23T09:16:51Z</time>
      </trkpt>
      <trkpt lat="46.163007086142898" lon="8.172819865867496">
        <ele>1887.1199999999999</ele>
        <time>2025-02-23T09:17:07Z</time>
      </trkpt>
      <trkpt lat="46.163061987608671" lon="8.172705369070172">
        <ele>1889.46</ele>
        <time>2025-02-23T09:17:22Z</time>
      </trkpt>
      <trkpt lat="46.163103897124529" lon="8.172575868666172">
        <ele>1891.0799999999999</ele>
        <time>2025-02-23T09:17:38Z</time>
      </trkpt>
      <trkpt lat="46.16313180886209" lon="8.172440668568015">
        <ele>1893.22</ele>
        <time>2025-02-23T09:17:56Z</time>
      </trkpt>
      <trkpt lat="46.163147985935211" lon="8.172293985262513">
        <ele>1895.0999999999999</ele>
        <time>2025-02-23T09:18:10Z</time>
      </trkpt>
      <trkpt lat="46.163120493292809" lon="8.17211939021945">
        <ele>1897.3699999999999</ele>
        <time>2025-02-23T09:18:26Z</time>
      </trkpt>
      <trkpt lat="46.163148153573275" lon="8.17199039272964">
        <ele>1899.8900000000001</ele>
        <time>2025-02-23T09:18:42Z</time>
      </trkpt>
      <trkpt lat="46.163178412243724" lon="8.171869777143002">
        <ele>1902.04</ele>
        <time>2025-02-23T09:18:58Z</time>
      </trkpt>
      <trkpt lat="46.163232559338212" lon="8.171746144071221">
        <ele>1904.4100000000001</ele>
        <time>2025-02-23T09:19:15Z</time>
      </trkpt>
      <trkpt lat="46.163282934576273" lon="8.171621924266219">
        <ele>1906.6700000000001</ele>
        <time>2025-02-23T09:19:32Z</time>
      </trkpt>
      <trkpt lat="46.163354348391294" lon="8.171519748866558">
        <ele>1908.24</ele>
        <time>2025-02-23T09:19:46Z</time>
      </trkpt>
      <trkpt lat="46.163418889045715" lon="8.171433582901955">
        <ele>1909.9100000000001</ele>
        <time>2025-02-23T09:19:59Z</time>
      </trkpt>
      <trkpt lat="46.163466833531857" lon="8.171306680887938">
        <ele>1911.49</ele>
        <time>2025-02-23T09:20:14Z</time>
      </trkpt>
      <trkpt lat="46.163508575409651" lon="8.171200733631849">
        <ele>1912.99</ele>
        <time>2025-02-23T09:20:29Z</time>
      </trkpt>
      <trkpt lat="46.163542019203305" lon="8.171081291511655">
        <ele>1914.27</ele>
        <time>2025-02-23T09:20:41Z</time>
      </trkpt>
      <trkpt lat="46.1635612975806" lon="8.170932093635202">
        <ele>1915.5699999999999</ele>
        <time>2025-02-23T09:20:55Z</time>
      </trkpt>
      <trkpt lat="46.163608739152551" lon="8.170808795839548">
        <ele>1917.2</ele>
        <time>2025-02-23T09:21:12Z</time>
      </trkpt>
      <trkpt lat="46.163641596212983" lon="8.17065155133605">
        <ele>1917.79</ele>
        <time>2025-02-23T09:21:27Z</time>
      </trkpt>
      <trkpt lat="46.163656432181597" lon="8.170488690957427">
        <ele>1918.8900000000001</ele>
        <time>2025-02-23T09:21:40Z</time>
      </trkpt>
      <trkpt lat="46.163712507113814" lon="8.17037595435977">
        <ele>1920.25</ele>
        <time>2025-02-23T09:21:54Z</time>
      </trkpt>
      <trkpt lat="46.163745615631342" lon="8.170225918292999">
        <ele>1921.8399999999999</ele>
        <time>2025-02-23T09:22:07Z</time>
      </trkpt>
      <trkpt lat="46.163782915100455" lon="8.170083090662956">
        <ele>1922.5999999999999</ele>
        <time>2025-02-23T09:22:19Z</time>
      </trkpt>
      <trkpt lat="46.163811581209302" lon="8.169946633279324">
        <ele>1923.51</ele>
        <time>2025-02-23T09:22:30Z</time>
      </trkpt>
      <trkpt lat="46.16385692730546" lon="8.169821156188846">
        <ele>1924.9300000000001</ele>
        <time>2025-02-23T09:22:42Z</time>
      </trkpt>
      <trkpt lat="46.163887605071068" lon="8.169690733775497">
        <ele>1926.53</ele>
        <time>2025-02-23T09:22:54Z</time>
      </trkpt>
      <trkpt lat="46.163930101320148" lon="8.169567352160811">
        <ele>1927.97</ele>
        <time>2025-02-23T09:23:06Z</time>
      </trkpt>
      <trkpt lat="46.163989948108792" lon="8.169473055750132">
        <ele>1929.1300000000001</ele>
        <time>2025-02-23T09:23:17Z</time>
      </trkpt>
      <trkpt lat="46.164025906473398" lon="8.16935763694346">
        <ele>1929.8399999999999</ele>
        <time>2025-02-23T09:23:28Z</time>
      </trkpt>
      <trkpt lat="46.164074186235666" lon="8.169253282248974">
        <ele>1930.5799999999999</ele>
        <time>2025-02-23T09:23:38Z</time>
      </trkpt>
      <trkpt lat="46.164120035246015" lon="8.169133085757494">
        <ele>1931.52</ele>
        <time>2025-02-23T09:23:50Z</time>
      </trkpt>
      <trkpt lat="46.164146522060037" lon="8.169002328068018">
        <ele>1932.23</ele>
        <time>2025-02-23T09:24:01Z</time>
      </trkpt>
      <trkpt lat="46.164093296974897" lon="8.16883971914649">
        <ele>1932.46</ele>
        <time>2025-02-23T09:24:11Z</time>
      </trkpt>
      <trkpt lat="46.164011741057038" lon="8.168743578717113">
        <ele>1933.5599999999999</ele>
        <time>2025-02-23T09:24:24Z</time>
      </trkpt>
      <trkpt lat="46.163917863741517" lon="8.168695382773876">
        <ele>1935.49</ele>
        <time>2025-02-23T09:24:38Z</time>
      </trkpt>
      <trkpt lat="46.163830189034343" lon="8.168616928160191">
        <ele>1937.6500000000001</ele>
        <time>2025-02-23T09:24:52Z</time>
      </trkpt>
      <trkpt lat="46.163748046383262" lon="8.168544257059693">
        <ele>1938.6700000000001</ele>
        <time>2025-02-23T09:25:04Z</time>
      </trkpt>
      <trkpt lat="46.163692222908139" lon="8.168442836031318">
        <ele>1939.8699999999999</ele>
        <time>2025-02-23T09:25:20Z</time>
      </trkpt>
      <trkpt lat="46.163653247058392" lon="8.168322890996933">
        <ele>1943.3299999999999</ele>
        <time>2025-02-23T09:25:44Z</time>
      </trkpt>
      <trkpt lat="46.16364536806941" lon="8.168182997033">
        <ele>1946.5999999999999</ele>
        <time>2025-02-23T09:26:07Z</time>
      </trkpt>
      <trkpt lat="46.16363849490881" lon="8.16803396679461">
        <ele>1950.5699999999999</ele>
        <time>2025-02-23T09:26:31Z</time>
      </trkpt>
      <trkpt lat="46.163625419139862" lon="8.167894827201963">
        <ele>1953.75</ele>
        <time>2025-02-23T09:26:52Z</time>
      </trkpt>
      <trkpt lat="46.163598261773586" lon="8.167750826105475">
        <ele>1956.6900000000001</ele>
        <time>2025-02-23T09:27:11Z</time>
      </trkpt>
      <trkpt lat="46.163577055558562" lon="8.167614536359906">
        <ele>1960.25</ele>
        <time>2025-02-23T09:27:30Z</time>
      </trkpt>
      <trkpt lat="46.163566745817661" lon="8.167481767013669">
        <ele>1963.6300000000001</ele>
        <time>2025-02-23T09:27:49Z</time>
      </trkpt>
      <trkpt lat="46.163556100800633" lon="8.167346064001322">
        <ele>1966.77</ele>
        <time>2025-02-23T09:28:09Z</time>
      </trkpt>
      <trkpt lat="46.163537409156561" lon="8.16721748560667">
        <ele>1969.5799999999999</ele>
        <time>2025-02-23T09:28:27Z</time>
      </trkpt>
      <trkpt lat="46.163571774959564" lon="8.167101396247745">
        <ele>1971.51</ele>
        <time>2025-02-23T09:28:43Z</time>
      </trkpt>
      <trkpt lat="46.163524752482772" lon="8.167094439268112">
        <ele>1971.4400000000001</ele>
        <time>2025-02-23T09:33:13Z</time>
      </trkpt>
      <trkpt lat="46.163558699190617" lon="8.167054792866111">
        <ele>1974.8399999999999</ele>
        <time>2025-02-23T09:38:31Z</time>
      </trkpt>
      <trkpt lat="46.163585018366575" lon="8.166968962177634">
        <ele>1974.1400000000001</ele>
        <time>2025-02-23T09:39:20Z</time>
      </trkpt>
      <trkpt lat="46.163586527109146" lon="8.166824877262116">
        <ele>1974.78</ele>
        <time>2025-02-23T09:39:31Z</time>
      </trkpt>
      <trkpt lat="46.163593651726842" lon="8.166686492040753">
        <ele>1975.24</ele>
        <time>2025-02-23T09:39:41Z</time>
      </trkpt>
      <trkpt lat="46.163608739152551" lon="8.166555901989341">
        <ele>1976.22</ele>
        <time>2025-02-23T09:39:52Z</time>
      </trkpt>
      <trkpt lat="46.163612175732851" lon="8.166418438777328">
        <ele>1977.27</ele>
        <time>2025-02-23T09:40:04Z</time>
      </trkpt>
      <trkpt lat="46.163608487695456" lon="8.166289106011391">
        <ele>1977.6900000000001</ele>
        <time>2025-02-23T09:40:16Z</time>
      </trkpt>
      <trkpt lat="46.163612762466073" lon="8.166154744103551">
        <ele>1977.6700000000001</ele>
        <time>2025-02-23T09:40:27Z</time>
      </trkpt>
      <trkpt lat="46.163620473816991" lon="8.166027590632439">
        <ele>1978.26</ele>
        <time>2025-02-23T09:40:39Z</time>
      </trkpt>
      <trkpt lat="46.163624664768577" lon="8.165890127420425">
        <ele>1978.9400000000001</ele>
        <time>2025-02-23T09:40:51Z</time>
      </trkpt>
      <trkpt lat="46.16361552849412" lon="8.165764817968011">
        <ele>1979.23</ele>
        <time>2025-02-23T09:41:03Z</time>
      </trkpt>
      <trkpt lat="46.163669340312481" lon="8.165654176846147">
        <ele>1980.2</ele>
        <time>2025-02-23T09:41:15Z</time>
      </trkpt>
      <trkpt lat="46.163712088018656" lon="8.165534902364016">
        <ele>1981.6700000000001</ele>
        <time>2025-02-23T09:41:28Z</time>
      </trkpt>
      <trkpt lat="46.163753997534513" lon="8.165418980643153">
        <ele>1983</ele>
        <time>2025-02-23T09:41:41Z</time>
      </trkpt>
      <trkpt lat="46.163811245933175" lon="8.165324181318283">
        <ele>1984.29</ele>
        <time>2025-02-23T09:41:57Z</time>
      </trkpt>
      <trkpt lat="46.163867572322488" lon="8.165220245718956">
        <ele>1986.5699999999999</ele>
        <time>2025-02-23T09:42:14Z</time>
      </trkpt>
      <trkpt lat="46.163930352777243" lon="8.165124440565705">
        <ele>1988.72</ele>
        <time>2025-02-23T09:42:33Z</time>
      </trkpt>
      <trkpt lat="46.164013417437673" lon="8.165059229359031">
        <ele>1990.8900000000001</ele>
        <time>2025-02-23T09:42:55Z</time>
      </trkpt>
      <trkpt lat="46.164078796282411" lon="8.164955964311957">
        <ele>1993.1800000000001</ele>
        <time>2025-02-23T09:43:12Z</time>
      </trkpt>
      <trkpt lat="46.164141995832324" lon="8.164853537455201">
        <ele>1994.8800000000001</ele>
        <time>2025-02-23T09:43:29Z</time>
      </trkpt>
      <trkpt lat="46.164192957803607" lon="8.16474842838943">
        <ele>1995.5599999999999</ele>
        <time>2025-02-23T09:43:58Z</time>
      </trkpt>
      <trkpt lat="46.164255905896425" lon="8.164646169170737">
        <ele>1996.23</ele>
        <time>2025-02-23T09:44:13Z</time>
      </trkpt>
      <trkpt lat="46.164333103224635" lon="8.164571989327669">
        <ele>1996.6600000000001</ele>
        <time>2025-02-23T09:44:44Z</time>
      </trkpt>
      <trkpt lat="46.164393620565534" lon="8.164489511400461">
        <ele>1997.0699999999999</ele>
        <time>2025-02-23T09:45:03Z</time>
      </trkpt>
      <trkpt lat="46.16445547901094" lon="8.164384737610817">
        <ele>1998.0999999999999</ele>
        <time>2025-02-23T09:45:16Z</time>
      </trkpt>
      <trkpt lat="46.164521109312773" lon="8.164284490048885">
        <ele>1999.1500000000001</ele>
        <time>2025-02-23T09:45:29Z</time>
      </trkpt>
      <trkpt lat="46.164556061848998" lon="8.164179045706987">
        <ele>2000.8299999999999</ele>
        <time>2025-02-23T09:45:45Z</time>
      </trkpt>
      <trkpt lat="46.164607107639313" lon="8.16407460719347">
        <ele>2002.5</ele>
        <time>2025-02-23T09:46:01Z</time>
      </trkpt>
      <trkpt lat="46.164656393229961" lon="8.163960864767432">
        <ele>2004.5</ele>
        <time>2025-02-23T09:46:18Z</time>
      </trkpt>
      <trkpt lat="46.164733925834298" lon="8.163897749036551">
        <ele>2005.8199999999999</ele>
        <time>2025-02-23T09:46:32Z</time>
      </trkpt>
      <trkpt lat="46.164801483973861" lon="8.163799764588475">
        <ele>2007.01</ele>
        <time>2025-02-23T09:46:48Z</time>
      </trkpt>
      <trkpt lat="46.164886727929115" lon="8.163736397400498">
        <ele>2008.2</ele>
        <time>2025-02-23T09:47:01Z</time>
      </trkpt>
      <trkpt lat="46.164921764284372" lon="8.163623074069619">
        <ele>2009.48</ele>
        <time>2025-02-23T09:47:18Z</time>
      </trkpt>
      <trkpt lat="46.164955627173185" lon="8.163578985258937">
        <ele>2009.4300000000001</ele>
        <time>2025-02-23T09:47:59Z</time>
      </trkpt>
      <trkpt lat="46.164965685456991" lon="8.16349608823657">
        <ele>2009.27</ele>
        <time>2025-02-23T09:49:53Z</time>
      </trkpt>
      <trkpt lat="46.164951268583536" lon="8.163538919761777">
        <ele>2009.8800000000001</ele>
        <time>2025-02-23T09:52:05Z</time>
      </trkpt>
      <trkpt lat="46.164981443434954" lon="8.16353757865727">
        <ele>2010.1900000000001</ele>
        <time>2025-02-23T09:54:32Z</time>
      </trkpt>
      <trkpt lat="46.165005750954151" lon="8.163453508168459">
        <ele>2010.23</ele>
        <time>2025-02-23T09:55:43Z</time>
      </trkpt>
      <trkpt lat="46.165041709318757" lon="8.163317469879985">
        <ele>2010.45</ele>
        <time>2025-02-23T09:55:54Z</time>
      </trkpt>
      <trkpt lat="46.16506727412343" lon="8.163175899535418">
        <ele>2010.3299999999999</ele>
        <time>2025-02-23T09:56:04Z</time>
      </trkpt>
      <trkpt lat="46.165094850584865" lon="8.163041453808546">
        <ele>2010.78</ele>
        <time>2025-02-23T09:56:14Z</time>
      </trkpt>
      <trkpt lat="46.165119744837284" lon="8.162904744967818">
        <ele>2011.04</ele>
        <time>2025-02-23T09:56:24Z</time>
      </trkpt>
      <trkpt lat="46.165139945223927" lon="8.162773149088025">
        <ele>2011.8199999999999</ele>
        <time>2025-02-23T09:56:34Z</time>
      </trkpt>
      <trkpt lat="46.165160816162825" lon="8.162630070000887">
        <ele>2012.25</ele>
        <time>2025-02-23T09:56:45Z</time>
      </trkpt>
      <trkpt lat="46.165178837254643" lon="8.162484224885702">
        <ele>2012.8599999999999</ele>
        <time>2025-02-23T09:56:56Z</time>
      </trkpt>
      <trkpt lat="46.165198031812906" lon="8.162339553236961">
        <ele>2013.5999999999999</ele>
        <time>2025-02-23T09:57:07Z</time>
      </trkpt>
      <trkpt lat="46.165212616324425" lon="8.16220561042428">
        <ele>2013.77</ele>
        <time>2025-02-23T09:57:17Z</time>
      </trkpt>
      <trkpt lat="46.165224183350801" lon="8.162063704803586">
        <ele>2014.3900000000001</ele>
        <time>2025-02-23T09:57:28Z</time>
      </trkpt>
      <trkpt lat="46.165233487263322" lon="8.161931186914444">
        <ele>2015.0799999999999</ele>
        <time>2025-02-23T09:57:38Z</time>
      </trkpt>
      <trkpt lat="46.165252765640616" lon="8.161804368719459">
        <ele>2015.54</ele>
        <time>2025-02-23T09:57:49Z</time>
      </trkpt>
      <trkpt lat="46.165273552760482" lon="8.161668414250016">
        <ele>2016.0899999999999</ele>
        <time>2025-02-23T09:58:00Z</time>
      </trkpt>
      <trkpt lat="46.165291490033269" lon="8.161529777571559">
        <ele>2017.3099999999999</ele>
        <time>2025-02-23T09:58:12Z</time>
      </trkpt>
      <trkpt lat="46.165313702076674" lon="8.161398516967893">
        <ele>2018.6700000000001</ele>
        <time>2025-02-23T09:58:25Z</time>
      </trkpt>
      <trkpt lat="46.165326526388526" lon="8.161258203908801">
        <ele>2020.7</ele>
        <time>2025-02-23T09:58:39Z</time>
      </trkpt>
      <trkpt lat="46.165329711511731" lon="8.161114538088441">
        <ele>2022.01</ele>
        <time>2025-02-23T09:58:52Z</time>
      </trkpt>
      <trkpt lat="46.165338093414903" lon="8.160968609154224">
        <ele>2023.4100000000001</ele>
        <time>2025-02-23T09:59:05Z</time>
      </trkpt>
      <trkpt lat="46.165357790887356" lon="8.160832989960909">
        <ele>2023.55</ele>
        <time>2025-02-23T09:59:17Z</time>
      </trkpt>
      <trkpt lat="46.165376650169492" lon="8.160700304433703">
        <ele>2023.6300000000001</ele>
        <time>2025-02-23T09:59:28Z</time>
      </trkpt>
      <trkpt lat="46.165395341813564" lon="8.160563511773944">
        <ele>2023.76</ele>
        <time>2025-02-23T09:59:39Z</time>
      </trkpt>
      <trkpt lat="46.165399113669991" lon="8.160421103239059">
        <ele>2024.3199999999999</ele>
        <time>2025-02-23T09:59:51Z</time>
      </trkpt>
      <trkpt lat="46.165382182225585" lon="8.160291602835059">
        <ele>2025.79</ele>
        <time>2025-02-23T10:00:05Z</time>
      </trkpt>
      <trkpt lat="46.165327113121748" lon="8.160173669457436">
        <ele>2027.23</ele>
        <time>2025-02-23T10:00:19Z</time>
      </trkpt>
      <trkpt lat="46.165328705683351" lon="8.160043749958277">
        <ele>2029.73</ele>
        <time>2025-02-23T10:00:41Z</time>
      </trkpt>
      <trkpt lat="46.165331974625587" lon="8.159906957298517">
        <ele>2031.3</ele>
        <time>2025-02-23T10:00:56Z</time>
      </trkpt>
      <trkpt lat="46.165286460891366" lon="8.159794555976987">
        <ele>2032.9300000000001</ele>
        <time>2025-02-23T10:01:10Z</time>
      </trkpt>
      <trkpt lat="46.165226865559816" lon="8.159694811329246">
        <ele>2034.9200000000001</ele>
        <time>2025-02-23T10:01:27Z</time>
      </trkpt>
      <trkpt lat="46.165179759263992" lon="8.159580901265144">
        <ele>2036.75</ele>
        <time>2025-02-23T10:01:41Z</time>
      </trkpt>
      <trkpt lat="46.165134329348803" lon="8.159449892118573">
        <ele>2038.1600000000001</ele>
        <time>2025-02-23T10:01:56Z</time>
      </trkpt>
      <trkpt lat="46.165124773979187" lon="8.159326510503888">
        <ele>2039.5899999999999</ele>
        <time>2025-02-23T10:02:10Z</time>
      </trkpt>
      <trkpt lat="46.165127456188202" lon="8.15920346416533">
        <ele>2042.0799999999999</ele>
        <time>2025-02-23T10:02:28Z</time>
      </trkpt>
      <trkpt lat="46.16513567045331" lon="8.159081591293216">
        <ele>2043.8800000000001</ele>
        <time>2025-02-23T10:02:44Z</time>
      </trkpt>
      <trkpt lat="46.165124019607902" lon="8.158954856917262">
        <ele>2045.8699999999999</ele>
        <time>2025-02-23T10:03:00Z</time>
      </trkpt>
      <trkpt lat="46.165115553885698" lon="8.158826529979706">
        <ele>2047.6199999999999</ele>
        <time>2025-02-23T10:03:16Z</time>
      </trkpt>
      <trkpt lat="46.165128629654646" lon="8.158696191385388">
        <ele>2049.96</ele>
        <time>2025-02-23T10:03:32Z</time>
      </trkpt>
      <trkpt lat="46.165149919688702" lon="8.158568367362022">
        <ele>2051.6399999999999</ele>
        <time>2025-02-23T10:03:48Z</time>
      </trkpt>
      <trkpt lat="46.165189649909735" lon="8.15844657830894">
        <ele>2053.1999999999998</ele>
        <time>2025-02-23T10:04:05Z</time>
      </trkpt>
      <trkpt lat="46.165225943550467" lon="8.158325627446175">
        <ele>2054.77</ele>
        <time>2025-02-23T10:04:20Z</time>
      </trkpt>
      <trkpt lat="46.16525930352509" lon="8.158197551965714">
        <ele>2056.21</ele>
        <time>2025-02-23T10:04:34Z</time>
      </trkpt>
      <trkpt lat="46.165289562195539" lon="8.15807668492198">
        <ele>2057.5799999999999</ele>
        <time>2025-02-23T10:04:47Z</time>
      </trkpt>
      <trkpt lat="46.165311858057976" lon="8.157937545329332">
        <ele>2058.9000000000001</ele>
        <time>2025-02-23T10:05:01Z</time>
      </trkpt>
      <trkpt lat="46.165334740653634" lon="8.157792035490274">
        <ele>2060.1100000000001</ele>
        <time>2025-02-23T10:05:14Z</time>
      </trkpt>
      <trkpt lat="46.165332393720746" lon="8.157651806250215">
        <ele>2060.8299999999999</ele>
        <time>2025-02-23T10:05:27Z</time>
      </trkpt>
      <trkpt lat="46.165326777845621" lon="8.157507050782442">
        <ele>2061.25</ele>
        <time>2025-02-23T10:05:39Z</time>
      </trkpt>
      <trkpt lat="46.165322922170162" lon="8.157368246465921">
        <ele>2061.9400000000001</ele>
        <time>2025-02-23T10:05:52Z</time>
      </trkpt>
      <trkpt lat="46.165320072323084" lon="8.157230950891972">
        <ele>2062.9200000000001</ele>
        <time>2025-02-23T10:06:05Z</time>
      </trkpt>
      <trkpt lat="46.165317893028259" lon="8.157086027786136">
        <ele>2064.0999999999999</ele>
        <time>2025-02-23T10:06:18Z</time>
      </trkpt>
      <trkpt lat="46.165318312123418" lon="8.156954096630216">
        <ele>2065.48</ele>
        <time>2025-02-23T10:06:32Z</time>
      </trkpt>
      <trkpt lat="46.165305320173502" lon="8.156828284263611">
        <ele>2067.0799999999999</ele>
        <time>2025-02-23T10:06:46Z</time>
      </trkpt>
      <trkpt lat="46.165289729833603" lon="8.156693838536739">
        <ele>2068.98</ele>
        <time>2025-02-23T10:07:00Z</time>
      </trkpt>
      <trkpt lat="46.16527346894145" lon="8.156565008684993">
        <ele>2070.73</ele>
        <time>2025-02-23T10:07:16Z</time>
      </trkpt>
      <trkpt lat="46.165272127836943" lon="8.15643978305161">
        <ele>2072.79</ele>
        <time>2025-02-23T10:07:35Z</time>
      </trkpt>
      <trkpt lat="46.165260393172503" lon="8.156306343153119">
        <ele>2074.2600000000002</ele>
        <time>2025-02-23T10:07:49Z</time>
      </trkpt>
      <trkpt lat="46.165262153372169" lon="8.156175669282675">
        <ele>2075.8299999999999</ele>
        <time>2025-02-23T10:08:03Z</time>
      </trkpt>
      <trkpt lat="46.165261147543788" lon="8.1560361944139">
        <ele>2077.0100000000002</ele>
        <time>2025-02-23T10:08:17Z</time>
      </trkpt>
      <trkpt lat="46.165264332666993" lon="8.155893199145794">
        <ele>2078.0799999999999</ele>
        <time>2025-02-23T10:08:31Z</time>
      </trkpt>
      <trkpt lat="46.16526810452342" lon="8.155767805874348">
        <ele>2078.7800000000002</ele>
        <time>2025-02-23T10:08:44Z</time>
      </trkpt>
      <trkpt lat="46.16527933627367" lon="8.155628582462668">
        <ele>2080.5300000000002</ele>
        <time>2025-02-23T10:08:58Z</time>
      </trkpt>
      <trkpt lat="46.165285119786859" lon="8.155487012118101">
        <ele>2081.6900000000001</ele>
        <time>2025-02-23T10:09:12Z</time>
      </trkpt>
      <trkpt lat="46.165285706520081" lon="8.155351979658008">
        <ele>2082.4299999999998</ele>
        <time>2025-02-23T10:09:25Z</time>
      </trkpt>
      <trkpt lat="46.165315797552466" lon="8.155218791216612">
        <ele>2083.2800000000002</ele>
        <time>2025-02-23T10:09:38Z</time>
      </trkpt>
      <trkpt lat="46.165365669876337" lon="8.155101779848337">
        <ele>2084.1999999999998</ele>
        <time>2025-02-23T10:09:52Z</time>
      </trkpt>
      <trkpt lat="46.165403388440609" lon="8.154972782358527">
        <ele>2084.3200000000002</ele>
        <time>2025-02-23T10:10:04Z</time>
      </trkpt>
      <trkpt lat="46.165411518886685" lon="8.154846886172891">
        <ele>2083.9099999999999</ele>
        <time>2025-02-23T10:10:19Z</time>
      </trkpt>
      <trkpt lat="46.165453009307384" lon="8.154731886461377">
        <ele>2084.0599999999999</ele>
        <time>2025-02-23T10:10:32Z</time>
      </trkpt>
      <trkpt lat="46.165492655709386" lon="8.15461378544569">
        <ele>2084.46</ele>
        <time>2025-02-23T10:10:45Z</time>
      </trkpt>
      <trkpt lat="46.165531631559134" lon="8.154494678601623">
        <ele>2085.8600000000001</ele>
        <time>2025-02-23T10:11:00Z</time>
      </trkpt>
      <trkpt lat="46.165561303496361" lon="8.154369285330176">
        <ele>2085.8099999999999</ele>
        <time>2025-02-23T10:11:12Z</time>
      </trkpt>
      <trkpt lat="46.165587957948446" lon="8.154242048040032">
        <ele>2086.6700000000001</ele>
        <time>2025-02-23T10:11:31Z</time>
      </trkpt>
      <trkpt lat="46.165607236325741" lon="8.154111625626683">
        <ele>2087.6300000000001</ele>
        <time>2025-02-23T10:11:44Z</time>
      </trkpt>
      <trkpt lat="46.165631795302033" lon="8.153990674763918">
        <ele>2088.4000000000001</ele>
        <time>2025-02-23T10:11:56Z</time>
      </trkpt>
      <trkpt lat="46.165649062022567" lon="8.153868298977613">
        <ele>2089.4699999999998</ele>
        <time>2025-02-23T10:12:09Z</time>
      </trkpt>
      <trkpt lat="46.165686445310712" lon="8.153757154941559">
        <ele>2090.79</ele>
        <time>2025-02-23T10:12:23Z</time>
      </trkpt>
      <trkpt lat="46.165703292936087" lon="8.1536237988621">
        <ele>2091.5100000000002</ele>
        <time>2025-02-23T10:12:37Z</time>
      </trkpt>
      <trkpt lat="46.165699521079659" lon="8.153485916554928">
        <ele>2092.6399999999999</ele>
        <time>2025-02-23T10:12:53Z</time>
      </trkpt>
      <trkpt lat="46.165707902982831" lon="8.15334384329617">
        <ele>2093.9899999999998</ele>
        <time>2025-02-23T10:13:10Z</time>
      </trkpt>
      <trkpt lat="46.165723660960793" lon="8.153203865513206">
        <ele>2095.5900000000001</ele>
        <time>2025-02-23T10:13:23Z</time>
      </trkpt>
      <trkpt lat="46.165735563263297" lon="8.153067827224731">
        <ele>2096.3800000000001</ele>
        <time>2025-02-23T10:13:37Z</time>
      </trkpt>
      <trkpt lat="46.165748219937086" lon="8.152940338477492">
        <ele>2097.77</ele>
        <time>2025-02-23T10:13:51Z</time>
      </trkpt>
      <trkpt lat="46.165771018713713" lon="8.152805725112557">
        <ele>2099.5900000000001</ele>
        <time>2025-02-23T10:14:06Z</time>
      </trkpt>
      <trkpt lat="46.165792979300022" lon="8.152681840583682">
        <ele>2101.6199999999999</ele>
        <time>2025-02-23T10:14:20Z</time>
      </trkpt>
      <trkpt lat="46.165831619873643" lon="8.152558794245124">
        <ele>2103.6599999999999</ele>
        <time>2025-02-23T10:14:35Z</time>
      </trkpt>
      <trkpt lat="46.165872691199183" lon="8.152436586096883">
        <ele>2104.9400000000001</ele>
        <time>2025-02-23T10:14:50Z</time>
      </trkpt>
      <trkpt lat="46.165900100022554" lon="8.152303984388709">
        <ele>2105.4699999999998</ele>
        <time>2025-02-23T10:15:03Z</time>
      </trkpt>
      <trkpt lat="46.165913762524724" lon="8.152172137051821">
        <ele>2105.5100000000002</ele>
        <time>2025-02-23T10:15:15Z</time>
      </trkpt>
      <trkpt lat="46.165940500795841" lon="8.152045821771026">
        <ele>2105.3400000000001</ele>
        <time>2025-02-23T10:15:28Z</time>
      </trkpt>
      <trkpt lat="46.165948631241918" lon="8.152052275836468">
        <ele>2105.1700000000001</ele>
        <time>2025-02-23T10:21:42Z</time>
      </trkpt>
      <trkpt lat="46.165929269045591" lon="8.152105836197734">
        <ele>2106.0799999999999</ele>
        <time>2025-02-23T10:24:03Z</time>
      </trkpt>
      <trkpt lat="46.165899848565459" lon="8.1522370968014">
        <ele>2106.1300000000001</ele>
        <time>2025-02-23T10:24:14Z</time>
      </trkpt>
      <trkpt lat="46.165931448340416" lon="8.152139531448484">
        <ele>2105.8299999999999</ele>
        <time>2025-02-23T10:25:34Z</time>
      </trkpt>
      <trkpt lat="46.165904039517045" lon="8.152025956660509">
        <ele>2105.9400000000001</ele>
        <time>2025-02-23T10:27:27Z</time>
      </trkpt>
      <trkpt lat="46.16584025323391" lon="8.151952279731631">
        <ele>2106.0999999999999</ele>
        <time>2025-02-23T10:27:51Z</time>
      </trkpt>
      <trkpt lat="46.165757942944765" lon="8.151959488168359">
        <ele>2105.9899999999998</ele>
        <time>2025-02-23T10:28:38Z</time>
      </trkpt>
      <trkpt lat="46.165671860799193" lon="8.151985807344317">
        <ele>2105.9099999999999</ele>
        <time>2025-02-23T10:28:48Z</time>
      </trkpt>
      <trkpt lat="46.165586952120066" lon="8.152033416554332">
        <ele>2105.6599999999999</ele>
        <time>2025-02-23T10:29:30Z</time>
      </trkpt>
      <trkpt lat="46.165495589375496" lon="8.152074068784714">
        <ele>2105.1300000000001</ele>
        <time>2025-02-23T10:29:40Z</time>
      </trkpt>
      <trkpt lat="46.165405819192529" lon="8.152038780972362">
        <ele>2105.3600000000001</ele>
        <time>2025-02-23T10:29:52Z</time>
      </trkpt>
      <trkpt lat="46.16532526910305" lon="8.152001732960343">
        <ele>2107.5900000000001</ele>
        <time>2025-02-23T10:30:09Z</time>
      </trkpt>
      <trkpt lat="46.165248993784189" lon="8.151950603350997">
        <ele>2110.1900000000001</ele>
        <time>2025-02-23T10:30:28Z</time>
      </trkpt>
      <trkpt lat="46.165213622152805" lon="8.151822360232472">
        <ele>2112.8499999999999</ele>
        <time>2025-02-23T10:30:48Z</time>
      </trkpt>
      <trkpt lat="46.165206078439951" lon="8.151684980839491">
        <ele>2115.3800000000001</ele>
        <time>2025-02-23T10:31:09Z</time>
      </trkpt>
      <trkpt lat="46.165197864174843" lon="8.151556150987744">
        <ele>2118.9899999999998</ele>
        <time>2025-02-23T10:31:33Z</time>
      </trkpt>
      <trkpt lat="46.165139693766832" lon="8.151430590078235">
        <ele>2126.2800000000002</ele>
        <time>2025-02-23T10:32:23Z</time>
      </trkpt>
      <trkpt lat="46.165149919688702" lon="8.151298658922315">
        <ele>2129.52</ele>
        <time>2025-02-23T10:32:49Z</time>
      </trkpt>
      <trkpt lat="46.165109351277351" lon="8.151172259822488">
        <ele>2136.2600000000002</ele>
        <time>2025-02-23T10:33:53Z</time>
      </trkpt>
      <trkpt lat="46.165036763995886" lon="8.151119621470571">
        <ele>2141.4099999999999</ele>
        <time>2025-02-23T10:34:43Z</time>
      </trkpt>
      <trkpt lat="46.164981024339795" lon="8.151004454120994">
        <ele>2144.4000000000001</ele>
        <time>2025-02-23T10:35:24Z</time>
      </trkpt>
      <trkpt lat="46.164912544190884" lon="8.151101600378752">
        <ele>2146.8000000000002</ele>
        <time>2025-02-23T10:35:46Z</time>
      </trkpt>
      <trkpt lat="46.164821600541472" lon="8.1511440128088">
        <ele>2149.6599999999999</ele>
        <time>2025-02-23T10:36:33Z</time>
      </trkpt>
      <trkpt lat="46.164774326607585" lon="8.151043094694614">
        <ele>2153.8299999999999</ele>
        <time>2025-02-23T10:36:57Z</time>
      </trkpt>
      <trkpt lat="46.164701487869024" lon="8.150963885709643">
        <ele>2157.9200000000001</ele>
        <time>2025-02-23T10:37:32Z</time>
      </trkpt>
      <trkpt lat="46.164624206721783" lon="8.150903033092618">
        <ele>2160.46</ele>
        <time>2025-02-23T10:39:37Z</time>
      </trkpt>
      <trkpt lat="46.16456838324666" lon="8.150841258466244">
        <ele>2164.1700000000001</ele>
        <time>2025-02-23T10:39:59Z</time>
      </trkpt>
      <trkpt lat="46.164497304707766" lon="8.150780741125345">
        <ele>2168.6799999999998</ele>
        <time>2025-02-23T10:40:25Z</time>
      </trkpt>
      <trkpt lat="46.164428992196918" lon="8.15071108750999">
        <ele>2172.5100000000002</ele>
        <time>2025-02-23T10:40:53Z</time>
      </trkpt>
      <trkpt lat="46.164358165115118" lon="8.150658365339041">
        <ele>2174.5999999999999</ele>
        <time>2025-02-23T10:41:16Z</time>
      </trkpt>
      <trkpt lat="46.164296809583902" lon="8.150603212416172">
        <ele>2176.6999999999998</ele>
        <time>2025-02-23T10:41:35Z</time>
      </trkpt>
      <trkpt lat="46.164204441010952" lon="8.150590807199478">
        <ele>2177.6300000000001</ele>
        <time>2025-02-23T10:41:53Z</time>
      </trkpt>
      <trkpt lat="46.164112826809287" lon="8.150595501065254">
        <ele>2179.5500000000002</ele>
        <time>2025-02-23T10:42:12Z</time>
      </trkpt>
      <trkpt lat="46.164029845967889" lon="8.15060455352068">
        <ele>2181.9000000000001</ele>
        <time>2025-02-23T10:42:33Z</time>
      </trkpt>
      <trkpt lat="46.163937393575907" lon="8.150625759735704">
        <ele>2183.6799999999998</ele>
        <time>2025-02-23T10:42:53Z</time>
      </trkpt>
      <trkpt lat="46.163850892335176" lon="8.15067102201283">
        <ele>2185.5900000000001</ele>
        <time>2025-02-23T10:43:14Z</time>
      </trkpt>
      <trkpt lat="46.16375626064837" lon="8.150666914880276">
        <ele>2186.04</ele>
        <time>2025-02-23T10:45:25Z</time>
      </trkpt>
      <trkpt lat="46.163668418303132" lon="8.150634141638875">
        <ele>2186.98</ele>
        <time>2025-02-23T10:45:38Z</time>
      </trkpt>
      <trkpt lat="46.163577390834689" lon="8.15060606226325">
        <ele>2187.98</ele>
        <time>2025-02-23T10:45:50Z</time>
      </trkpt>
      <trkpt lat="46.163486279547215" lon="8.150577396154404">
        <ele>2189.7800000000002</ele>
        <time>2025-02-23T10:46:06Z</time>
      </trkpt>
      <trkpt lat="46.16339567117393" lon="8.150542862713337">
        <ele>2191.21</ele>
        <time>2025-02-23T10:46:22Z</time>
      </trkpt>
      <trkpt lat="46.163307074457407" lon="8.150500282645226">
        <ele>2193.21</ele>
        <time>2025-02-23T10:46:42Z</time>
      </trkpt>
      <trkpt lat="46.163217052817345" lon="8.150489805266261">
        <ele>2195.6900000000001</ele>
        <time>2025-02-23T10:47:04Z</time>
      </trkpt>
      <trkpt lat="46.16312887519598" lon="8.150488128885627">
        <ele>2198.0100000000002</ele>
        <time>2025-02-23T10:47:26Z</time>
      </trkpt>
      <trkpt lat="46.163039105013013" lon="8.150519728660584">
        <ele>2201.8800000000001</ele>
        <time>2025-02-23T10:47:56Z</time>
      </trkpt>
      <trkpt lat="46.162942042574286" lon="8.150518974289298">
        <ele>2204.6599999999999</ele>
        <time>2025-02-23T10:48:16Z</time>
      </trkpt>
      <trkpt lat="46.162859899923205" lon="8.150470945984125">
        <ele>2207.27</ele>
        <time>2025-02-23T10:48:37Z</time>
      </trkpt>
      <trkpt lat="46.162773314863443" lon="8.150412188842893">
        <ele>2208.8400000000001</ele>
        <time>2025-02-23T10:48:52Z</time>
      </trkpt>
      <trkpt lat="46.162729058414698" lon="8.150362987071276">
        <ele>2209.1900000000001</ele>
        <time>2025-02-23T10:49:25Z</time>
      </trkpt>
      <trkpt lat="46.162689663469791" lon="8.150319149717689">
        <ele>2209.52</ele>
        <time>2025-02-23T10:58:33Z</time>
      </trkpt>
      <trkpt lat="46.162657728418708" lon="8.150237007066608">
        <ele>2209.3299999999999</ele>
        <time>2025-02-23T11:01:00Z</time>
      </trkpt>
      <trkpt lat="46.162619004026055" lon="8.150158803910017">
        <ele>2208.7399999999998</ele>
        <time>2025-02-23T11:02:32Z</time>
      </trkpt>
      <trkpt lat="46.162590505555272" lon="8.150151846930385">
        <ele>2208.79</ele>
        <time>2025-02-23T11:04:18Z</time>
      </trkpt>
      <trkpt lat="46.162652028724551" lon="8.150196187198162">
        <ele>2208.71</ele>
        <time>2025-02-23T11:04:56Z</time>
      </trkpt>
      <trkpt lat="46.162625122815371" lon="8.150102226063609">
        <ele>2208.0900000000001</ele>
        <time>2025-02-23T11:05:51Z</time>
      </trkpt>
      <trkpt lat="46.162565611302853" lon="8.149995105341077">
        <ele>2208.5</ele>
        <time>2025-02-23T11:06:04Z</time>
      </trkpt>
      <trkpt lat="46.162487743422389" lon="8.149906927719712">
        <ele>2208.0599999999999</ele>
        <time>2025-02-23T11:06:16Z</time>
      </trkpt>
      <trkpt lat="46.16239151917398" lon="8.149941125884652">
        <ele>2206.6700000000001</ele>
        <time>2025-02-23T11:06:29Z</time>
      </trkpt>
      <trkpt lat="46.162300240248442" lon="8.149945065379143">
        <ele>2204.2600000000002</ele>
        <time>2025-02-23T11:06:42Z</time>
      </trkpt>
      <trkpt lat="46.162232514470816" lon="8.149949591606855">
        <ele>2202.0999999999999</ele>
        <time>2025-02-23T11:07:00Z</time>
      </trkpt>
      <trkpt lat="46.162137296050787" lon="8.149928385391831">
        <ele>2199</ele>
        <time>2025-02-23T11:07:16Z</time>
      </trkpt>
      <trkpt lat="46.162047777324915" lon="8.149913800880313">
        <ele>2196.7600000000002</ele>
        <time>2025-02-23T11:07:29Z</time>
      </trkpt>
      <trkpt lat="46.161975944414735" lon="8.149857977405191">
        <ele>2195.3800000000001</ele>
        <time>2025-02-23T11:07:42Z</time>
      </trkpt>
      <trkpt lat="46.16189556196332" lon="8.149824868887663">
        <ele>2194.52</ele>
        <time>2025-02-23T11:08:45Z</time>
      </trkpt>
      <trkpt lat="46.161801097914577" lon="8.149778768420219">
        <ele>2192.3099999999999</ele>
        <time>2025-02-23T11:08:58Z</time>
      </trkpt>
      <trkpt lat="46.161707723513246" lon="8.149769715964794">
        <ele>2189.7199999999998</ele>
        <time>2025-02-23T11:09:11Z</time>
      </trkpt>
      <trkpt lat="46.161616276949644" lon="8.149723196402192">
        <ele>2186.5700000000002</ele>
        <time>2025-02-23T11:09:25Z</time>
      </trkpt>
      <trkpt lat="46.161532877013087" lon="8.149663852527738">
        <ele>2184.5100000000002</ele>
        <time>2025-02-23T11:09:37Z</time>
      </trkpt>
      <trkpt lat="46.161441011354327" lon="8.149692267179489">
        <ele>2181.27</ele>
        <time>2025-02-23T11:09:52Z</time>
      </trkpt>
      <trkpt lat="46.161365741863847" lon="8.149699475616217">
        <ele>2177.4899999999998</ele>
        <time>2025-02-23T11:11:03Z</time>
      </trkpt>
      <trkpt lat="46.161281419917941" lon="8.149655889719725">
        <ele>2174.75</ele>
        <time>2025-02-23T11:11:18Z</time>
      </trkpt>
      <trkpt lat="46.161211179569364" lon="8.149691764265299">
        <ele>2170.3600000000001</ele>
        <time>2025-02-23T11:11:43Z</time>
      </trkpt>
      <trkpt lat="46.161152506247163" lon="8.149807183071971">
        <ele>2167.7600000000002</ele>
        <time>2025-02-23T11:11:58Z</time>
      </trkpt>
      <trkpt lat="46.161080421879888" lon="8.149893935769796">
        <ele>2164.9699999999998</ele>
        <time>2025-02-23T11:12:36Z</time>
      </trkpt>
      <trkpt lat="46.161006912589073" lon="8.149966271594167">
        <ele>2163.3299999999999</ele>
        <time>2025-02-23T11:12:51Z</time>
      </trkpt>
      <trkpt lat="46.160923931747675" lon="8.150035254657269">
        <ele>2162.2399999999998</ele>
        <time>2025-02-23T11:13:03Z</time>
      </trkpt>
      <trkpt lat="46.160887805745006" lon="8.150141034275293">
        <ele>2159.1999999999998</ele>
        <time>2025-02-23T11:15:19Z</time>
      </trkpt>
      <trkpt lat="46.160811530426145" lon="8.150212783366442">
        <ele>2155.2399999999998</ele>
        <time>2025-02-23T11:15:31Z</time>
      </trkpt>
      <trkpt lat="46.160711785778403" lon="8.1502391025424">
        <ele>2152.0500000000002</ele>
        <time>2025-02-23T11:15:42Z</time>
      </trkpt>
      <trkpt lat="46.160659398883581" lon="8.150338847190142">
        <ele>2148.8400000000001</ele>
        <time>2025-02-23T11:15:54Z</time>
      </trkpt>
      <trkpt lat="46.160620674490929" lon="8.150443704798818">
        <ele>2144.6100000000001</ele>
        <time>2025-02-23T11:16:07Z</time>
      </trkpt>
      <trkpt lat="46.160522690042853" lon="8.150477400049567">
        <ele>2138.7600000000002</ele>
        <time>2025-02-23T11:16:21Z</time>
      </trkpt>
      <trkpt lat="46.160443313419819" lon="8.15055325627327">
        <ele>2134.1999999999998</ele>
        <time>2025-02-23T11:16:36Z</time>
      </trkpt>
      <trkpt lat="46.160392183810472" lon="8.150655934587121">
        <ele>2130.0900000000001</ele>
        <time>2025-02-23T11:16:49Z</time>
      </trkpt>
      <trkpt lat="46.160334767773747" lon="8.15076045691967">
        <ele>2125.1900000000001</ele>
        <time>2025-02-23T11:17:03Z</time>
      </trkpt>
      <trkpt lat="46.160285146906972" lon="8.15086405724287">
        <ele>2121.1300000000001</ele>
        <time>2025-02-23T11:17:28Z</time>
      </trkpt>
      <trkpt lat="46.160214403644204" lon="8.150959610939026">
        <ele>2117.5900000000001</ele>
        <time>2025-02-23T11:17:39Z</time>
      </trkpt>
      <trkpt lat="46.160159669816494" lon="8.151042507961392">
        <ele>2115.3200000000002</ele>
        <time>2025-02-23T11:18:03Z</time>
      </trkpt>
      <trkpt lat="46.160093285143375" lon="8.151151305064559">
        <ele>2112.6199999999999</ele>
        <time>2025-02-23T11:18:15Z</time>
      </trkpt>
      <trkpt lat="46.160008041188121" lon="8.151220791041851">
        <ele>2109.3600000000001</ele>
        <time>2025-02-23T11:18:26Z</time>
      </trkpt>
      <trkpt lat="46.15992640145123" lon="8.151305867359042">
        <ele>2105.8400000000001</ele>
        <time>2025-02-23T11:18:37Z</time>
      </trkpt>
      <trkpt lat="46.159856831654906" lon="8.151406450197101">
        <ele>2102.75</ele>
        <time>2025-02-23T11:18:48Z</time>
      </trkpt>
      <trkpt lat="46.15979740396142" lon="8.151500998064876">
        <ele>2099.9099999999999</ele>
        <time>2025-02-23T11:18:58Z</time>
      </trkpt>
      <trkpt lat="46.159746022894979" lon="8.151605352759361">
        <ele>2098.0599999999999</ele>
        <time>2025-02-23T11:19:08Z</time>
      </trkpt>
      <trkpt lat="46.159729259088635" lon="8.151725465431809">
        <ele>2096.71</ele>
        <time>2025-02-23T11:19:23Z</time>
      </trkpt>
      <trkpt lat="46.159705705940723" lon="8.151862593367696">
        <ele>2094.79</ele>
        <time>2025-02-23T11:19:32Z</time>
      </trkpt>
      <trkpt lat="46.159676453098655" lon="8.151998296380043">
        <ele>2093.9400000000001</ele>
        <time>2025-02-23T11:19:41Z</time>
      </trkpt>
      <trkpt lat="46.159648541361094" lon="8.152126958593726">
        <ele>2093.0900000000001</ele>
        <time>2025-02-23T11:19:50Z</time>
      </trkpt>
      <trkpt lat="46.159609733149409" lon="8.152255872264504">
        <ele>2092.77</ele>
        <time>2025-02-23T11:20:00Z</time>
      </trkpt>
      <trkpt lat="46.159569835290313" lon="8.152373973280191">
        <ele>2092.3299999999999</ele>
        <time>2025-02-23T11:20:10Z</time>
      </trkpt>
      <trkpt lat="46.159531529992819" lon="8.152496265247464">
        <ele>2091.2199999999998</ele>
        <time>2025-02-23T11:20:20Z</time>
      </trkpt>
      <trkpt lat="46.15949297323823" lon="8.152618389576674">
        <ele>2090.0300000000002</ele>
        <time>2025-02-23T11:20:30Z</time>
      </trkpt>
      <trkpt lat="46.159453243017197" lon="8.152746884152293">
        <ele>2089.0500000000002</ele>
        <time>2025-02-23T11:20:40Z</time>
      </trkpt>
      <trkpt lat="46.159430863335729" lon="8.152869092300534">
        <ele>2088.23</ele>
        <time>2025-02-23T11:20:49Z</time>
      </trkpt>
      <trkpt lat="46.159401861950755" lon="8.15299934707582">
        <ele>2087.4200000000001</ele>
        <time>2025-02-23T11:20:59Z</time>
      </trkpt>
      <trkpt lat="46.159359533339739" lon="8.15312591381371">
        <ele>2085.5</ele>
        <time>2025-02-23T11:21:09Z</time>
      </trkpt>
      <trkpt lat="46.159311756491661" lon="8.153246864676476">
        <ele>2084.6500000000001</ele>
        <time>2025-02-23T11:21:19Z</time>
      </trkpt>
      <trkpt lat="46.159267583861947" lon="8.153373934328556">
        <ele>2084.1599999999999</ele>
        <time>2025-02-23T11:21:29Z</time>
      </trkpt>
      <trkpt lat="46.159227434545755" lon="8.153498992323875">
        <ele>2084.0100000000002</ele>
        <time>2025-02-23T11:21:39Z</time>
      </trkpt>
      <trkpt lat="46.159190386533737" lon="8.153621619567275">
        <ele>2084.25</ele>
        <time>2025-02-23T11:21:49Z</time>
      </trkpt>
      <trkpt lat="46.15914361551404" lon="8.153741396963596">
        <ele>2084.2600000000002</ele>
        <time>2025-02-23T11:21:59Z</time>
      </trkpt>
      <trkpt lat="46.159087624400854" lon="8.153843991458416">
        <ele>2084.4000000000001</ele>
        <time>2025-02-23T11:22:09Z</time>
      </trkpt>
      <trkpt lat="46.15902878344059" lon="8.153944071382284">
        <ele>2084.3099999999999</ele>
        <time>2025-02-23T11:22:19Z</time>
      </trkpt>
      <trkpt lat="46.158975139260292" lon="8.154049348086119">
        <ele>2083.4000000000001</ele>
        <time>2025-02-23T11:22:29Z</time>
      </trkpt>
      <trkpt lat="46.158942952752113" lon="8.154172645881772">
        <ele>2081.6799999999998</ele>
        <time>2025-02-23T11:22:39Z</time>
      </trkpt>
      <trkpt lat="46.158887129276991" lon="8.154275324195623">
        <ele>2080.0999999999999</ele>
        <time>2025-02-23T11:22:48Z</time>
      </trkpt>
      <trkpt lat="46.158801633864641" lon="8.154329722747207">
        <ele>2078.6500000000001</ele>
        <time>2025-02-23T11:22:57Z</time>
      </trkpt>
      <trkpt lat="46.158719155937433" lon="8.15440071746707">
        <ele>2076.9000000000001</ele>
        <time>2025-02-23T11:23:07Z</time>
      </trkpt>
      <trkpt lat="46.158630140125751" lon="8.154457379132509">
        <ele>2075.5</ele>
        <time>2025-02-23T11:23:17Z</time>
      </trkpt>
      <trkpt lat="46.158534837886691" lon="8.154496187344194">
        <ele>2074.6300000000001</ele>
        <time>2025-02-23T11:23:27Z</time>
      </trkpt>
      <trkpt lat="46.158434506505728" lon="8.154518315568566">
        <ele>2073.79</ele>
        <time>2025-02-23T11:23:39Z</time>
      </trkpt>
      <trkpt lat="46.158337276428938" lon="8.154572630301118">
        <ele>2071.6799999999998</ele>
        <time>2025-02-23T11:23:49Z</time>
      </trkpt>
      <trkpt lat="46.158251529559493" lon="8.154651168733835">
        <ele>2070.3400000000001</ele>
        <time>2025-02-23T11:23:59Z</time>
      </trkpt>
      <trkpt lat="46.158160753548145" lon="8.154690815135837">
        <ele>2069.1199999999999</ele>
        <time>2025-02-23T11:24:08Z</time>
      </trkpt>
      <trkpt lat="46.158075509592891" lon="8.154751919209957">
        <ele>2067.4000000000001</ele>
        <time>2025-02-23T11:24:18Z</time>
      </trkpt>
      <trkpt lat="46.158027900382876" lon="8.154858788475394">
        <ele>2065.5799999999999</ele>
        <time>2025-02-23T11:24:28Z</time>
      </trkpt>
      <trkpt lat="46.157989511266351" lon="8.154979990795255">
        <ele>2063.77</ele>
        <time>2025-02-23T11:24:38Z</time>
      </trkpt>
      <trkpt lat="46.157954391092062" lon="8.155102450400591">
        <ele>2061.9400000000001</ele>
        <time>2025-02-23T11:24:48Z</time>
      </trkpt>
      <trkpt lat="46.157903764396906" lon="8.155219713225961">
        <ele>2059.6799999999998</ele>
        <time>2025-02-23T11:24:58Z</time>
      </trkpt>
      <trkpt lat="46.15784140303731" lon="8.155325660482049">
        <ele>2058.5</ele>
        <time>2025-02-23T11:25:08Z</time>
      </trkpt>
      <trkpt lat="46.15778767503798" lon="8.155431523919106">
        <ele>2056.8000000000002</ele>
        <time>2025-02-23T11:25:18Z</time>
      </trkpt>
      <trkpt lat="46.15769631229341" lon="8.155476031824946">
        <ele>2055.3000000000002</ele>
        <time>2025-02-23T11:25:29Z</time>
      </trkpt>
      <trkpt lat="46.157632609829307" lon="8.155572675168514">
        <ele>2051.98</ele>
        <time>2025-02-23T11:25:41Z</time>
      </trkpt>
      <trkpt lat="46.157576953992248" lon="8.155685914680362">
        <ele>2047.7</ele>
        <time>2025-02-23T11:25:54Z</time>
      </trkpt>
      <trkpt lat="46.157498750835657" lon="8.155776020139456">
        <ele>2045.4200000000001</ele>
        <time>2025-02-23T11:26:05Z</time>
      </trkpt>
      <trkpt lat="46.157433623448014" lon="8.155869143083692">
        <ele>2042.95</ele>
        <time>2025-02-23T11:26:16Z</time>
      </trkpt>
      <trkpt lat="46.157381236553192" lon="8.155976179987192">
        <ele>2040.1099999999999</ele>
        <time>2025-02-23T11:26:27Z</time>
      </trkpt>
      <trkpt lat="46.157323066145182" lon="8.156073577702045">
        <ele>2038.5999999999999</ele>
        <time>2025-02-23T11:26:37Z</time>
      </trkpt>
      <trkpt lat="46.157260620966554" lon="8.156179692596197">
        <ele>2035.9400000000001</ele>
        <time>2025-02-23T11:26:50Z</time>
      </trkpt>
      <trkpt lat="46.157244276255369" lon="8.156258398666978">
        <ele>2033.03</ele>
        <time>2025-02-23T11:27:10Z</time>
      </trkpt>
      <trkpt lat="46.15734251216054" lon="8.156252196058631">
        <ele>2029.74</ele>
        <time>2025-02-23T11:27:24Z</time>
      </trkpt>
      <trkpt lat="46.157367657870054" lon="8.156337523832917">
        <ele>2026.4400000000001</ele>
        <time>2025-02-23T11:27:39Z</time>
      </trkpt>
      <trkpt lat="46.157398335635662" lon="8.156422851607204">
        <ele>2022.04</ele>
        <time>2025-02-23T11:28:00Z</time>
      </trkpt>
      <trkpt lat="46.157448878511786" lon="8.156502731144428">
        <ele>2018.48</ele>
        <time>2025-02-23T11:28:12Z</time>
      </trkpt>
      <trkpt lat="46.157432366162539" lon="8.156631980091333">
        <ele>2016.5599999999999</ele>
        <time>2025-02-23T11:28:23Z</time>
      </trkpt>
      <trkpt lat="46.157429851591587" lon="8.156767515465617">
        <ele>2013.9300000000001</ele>
        <time>2025-02-23T11:28:35Z</time>
      </trkpt>
      <trkpt lat="46.157355587929487" lon="8.156855441629887">
        <ele>2012.8499999999999</ele>
        <time>2025-02-23T11:28:47Z</time>
      </trkpt>
      <trkpt lat="46.157309571281075" lon="8.156969016417861">
        <ele>2010.6900000000001</ele>
        <time>2025-02-23T11:28:57Z</time>
      </trkpt>
      <trkpt lat="46.157264644280076" lon="8.157087871804833">
        <ele>2009.77</ele>
        <time>2025-02-23T11:29:08Z</time>
      </trkpt>
      <trkpt lat="46.157195996493101" lon="8.157176552340388">
        <ele>2009.4300000000001</ele>
        <time>2025-02-23T11:29:19Z</time>
      </trkpt>
      <trkpt lat="46.157135311514139" lon="8.157279314473271">
        <ele>2008.51</ele>
        <time>2025-02-23T11:29:34Z</time>
      </trkpt>
      <trkpt lat="46.157091222703457" lon="8.157405629754067">
        <ele>2006.73</ele>
        <time>2025-02-23T11:29:45Z</time>
      </trkpt>
      <trkpt lat="46.15706012584269" lon="8.157539572566748">
        <ele>2004.3800000000001</ele>
        <time>2025-02-23T11:29:56Z</time>
      </trkpt>
      <trkpt lat="46.157035147771239" lon="8.157670833170414">
        <ele>2002.8800000000001</ele>
        <time>2025-02-23T11:30:06Z</time>
      </trkpt>
      <trkpt lat="46.15701075643301" lon="8.157807122915983">
        <ele>2002.9400000000001</ele>
        <time>2025-02-23T11:30:18Z</time>
      </trkpt>
      <trkpt lat="46.156993908807635" lon="8.157941568642855">
        <ele>2002.1900000000001</ele>
        <time>2025-02-23T11:30:29Z</time>
      </trkpt>
      <trkpt lat="46.156957866623998" lon="8.158064195886254">
        <ele>2002.3099999999999</ele>
        <time>2025-02-23T11:30:41Z</time>
      </trkpt>
      <trkpt lat="46.156905479729176" lon="8.158171651884913">
        <ele>2001.8399999999999</ele>
        <time>2025-02-23T11:30:54Z</time>
      </trkpt>
      <trkpt lat="46.156821493059397" lon="8.158229654654861">
        <ele>2001.3599999999999</ele>
        <time>2025-02-23T11:32:05Z</time>
      </trkpt>
      <trkpt lat="46.156739098951221" lon="8.158296626061201">
        <ele>1999.3499999999999</ele>
        <time>2025-02-23T11:32:16Z</time>
      </trkpt>
      <trkpt lat="46.156672043725848" lon="8.158396538347006">
        <ele>1996.1400000000001</ele>
        <time>2025-02-23T11:32:27Z</time>
      </trkpt>
      <trkpt lat="46.156607251614332" lon="8.158494522795081">
        <ele>1994.1900000000001</ele>
        <time>2025-02-23T11:32:37Z</time>
      </trkpt>
      <trkpt lat="46.156521085649729" lon="8.158539868891239">
        <ele>1993.1099999999999</ele>
        <time>2025-02-23T11:32:48Z</time>
      </trkpt>
      <trkpt lat="46.156437769532204" lon="8.158574905246496">
        <ele>1993.1099999999999</ele>
        <time>2025-02-23T11:33:16Z</time>
      </trkpt>
      <trkpt lat="46.156380353495479" lon="8.158621760085225">
        <ele>1991.76</ele>
        <time>2025-02-23T11:36:26Z</time>
      </trkpt>
      <trkpt lat="46.156409690156579" lon="8.158624190837145">
        <ele>1991.29</ele>
        <time>2025-02-23T11:42:48Z</time>
      </trkpt>
      <trkpt lat="46.156379180029035" lon="8.158607427030802">
        <ele>1989.4300000000001</ele>
        <time>2025-02-23T11:48:49Z</time>
      </trkpt>
      <trkpt lat="46.156451934948564" lon="8.158618323504925">
        <ele>1991.1500000000001</ele>
        <time>2025-02-23T12:06:05Z</time>
      </trkpt>
      <trkpt lat="46.156416982412338" lon="8.158662579953671">
        <ele>1993.01</ele>
        <time>2025-02-23T12:18:03Z</time>
      </trkpt>
      <trkpt lat="46.15633986890316" lon="8.158716559410095">
        <ele>1991.75</ele>
        <time>2025-02-23T12:20:12Z</time>
      </trkpt>
      <trkpt lat="46.156251272186637" lon="8.158735670149326">
        <ele>1991.6600000000001</ele>
        <time>2025-02-23T12:20:25Z</time>
      </trkpt>
      <trkpt lat="46.156172566115856" lon="8.158785039559007">
        <ele>1993.6800000000001</ele>
        <time>2025-02-23T12:20:41Z</time>
      </trkpt>
      <trkpt lat="46.156097212806344" lon="8.158844383433461">
        <ele>1995.78</ele>
        <time>2025-02-23T12:20:58Z</time>
      </trkpt>
      <trkpt lat="46.156025296077132" lon="8.158935997635126">
        <ele>1998.9300000000001</ele>
        <time>2025-02-23T12:21:20Z</time>
      </trkpt>
      <trkpt lat="46.155982883647084" lon="8.159043034538627">
        <ele>2001.1099999999999</ele>
        <time>2025-02-23T12:21:40Z</time>
      </trkpt>
      <trkpt lat="46.155969891697168" lon="8.159171529114246">
        <ele>2003.04</ele>
        <time>2025-02-23T12:21:58Z</time>
      </trkpt>
      <trkpt lat="46.155974501743913" lon="8.15929725766182">
        <ele>2003.4300000000001</ele>
        <time>2025-02-23T12:22:12Z</time>
      </trkpt>
      <trkpt lat="46.155973579734564" lon="8.159426171332598">
        <ele>2003.8199999999999</ele>
        <time>2025-02-23T12:22:24Z</time>
      </trkpt>
      <trkpt lat="46.155955642461777" lon="8.159543853253126">
        <ele>2003.1900000000001</ele>
        <time>2025-02-23T12:22:37Z</time>
      </trkpt>
      <trkpt lat="46.155893951654434" lon="8.159641250967979">
        <ele>2001.5599999999999</ele>
        <time>2025-02-23T12:22:48Z</time>
      </trkpt>
      <trkpt lat="46.155847264453769" lon="8.159754322841764">
        <ele>2000.72</ele>
        <time>2025-02-23T12:22:59Z</time>
      </trkpt>
      <trkpt lat="46.155820274725556" lon="8.159876950085163">
        <ele>2000.48</ele>
        <time>2025-02-23T12:23:09Z</time>
      </trkpt>
      <trkpt lat="46.155769983306527" lon="8.159994464367628">
        <ele>1998.0999999999999</ele>
        <time>2025-02-23T12:23:21Z</time>
      </trkpt>
      <trkpt lat="46.155751459300518" lon="8.160128742456436">
        <ele>1994.9300000000001</ele>
        <time>2025-02-23T12:23:29Z</time>
      </trkpt>
      <trkpt lat="46.155743161216378" lon="8.160258829593658">
        <ele>1992.1099999999999</ele>
        <time>2025-02-23T12:23:37Z</time>
      </trkpt>
      <trkpt lat="46.15573980845511" lon="8.160394616425037">
        <ele>1989.8299999999999</ele>
        <time>2025-02-23T12:23:48Z</time>
      </trkpt>
      <trkpt lat="46.155690271407366" lon="8.160509364679456">
        <ele>1987.77</ele>
        <time>2025-02-23T12:23:57Z</time>
      </trkpt>
      <trkpt lat="46.155688092112541" lon="8.160634590312839">
        <ele>1985.3099999999999</ele>
        <time>2025-02-23T12:24:08Z</time>
      </trkpt>
      <trkpt lat="46.155702928081155" lon="8.160779261961579">
        <ele>1983.8800000000001</ele>
        <time>2025-02-23T12:24:33Z</time>
      </trkpt>
      <trkpt lat="46.155683230608702" lon="8.160911025479436">
        <ele>1982.4400000000001</ele>
        <time>2025-02-23T12:24:43Z</time>
      </trkpt>
      <trkpt lat="46.155653726309538" lon="8.161039436236024">
        <ele>1980.6800000000001</ele>
        <time>2025-02-23T12:24:54Z</time>
      </trkpt>
      <trkpt lat="46.155621958896518" lon="8.161163404583931">
        <ele>1978.8099999999999</ele>
        <time>2025-02-23T12:25:04Z</time>
      </trkpt>
      <trkpt lat="46.155582144856453" lon="8.161289552226663">
        <ele>1975.74</ele>
        <time>2025-02-23T12:25:23Z</time>
      </trkpt>
      <trkpt lat="46.155519364401698" lon="8.161388710141182">
        <ele>1974.3299999999999</ele>
        <time>2025-02-23T12:25:34Z</time>
      </trkpt>
      <trkpt lat="46.15544761531055" lon="8.161479737609625">
        <ele>1973.8199999999999</ele>
        <time>2025-02-23T12:25:46Z</time>
      </trkpt>
      <trkpt lat="46.155382068827748" lon="8.1615777220577">
        <ele>1973.21</ele>
        <time>2025-02-23T12:25:57Z</time>
      </trkpt>
      <trkpt lat="46.155337058007717" lon="8.16169205121696">
        <ele>1972.48</ele>
        <time>2025-02-23T12:26:08Z</time>
      </trkpt>
      <trkpt lat="46.1553137563169" lon="8.161832615733147">
        <ele>1971.1400000000001</ele>
        <time>2025-02-23T12:26:20Z</time>
      </trkpt>
      <trkpt lat="46.1553362198174" lon="8.161958679556847">
        <ele>1970.48</ele>
        <time>2025-02-23T12:26:31Z</time>
      </trkpt>
      <trkpt lat="46.155340243130922" lon="8.162086168304086">
        <ele>1969.3399999999999</ele>
        <time>2025-02-23T12:26:43Z</time>
      </trkpt>
      <trkpt lat="46.155351977795362" lon="8.162212818861008">
        <ele>1968.01</ele>
        <time>2025-02-23T12:26:55Z</time>
      </trkpt>
      <trkpt lat="46.155407046899199" lon="8.162324549630284">
        <ele>1967.99</ele>
        <time>2025-02-23T12:27:08Z</time>
      </trkpt>
      <trkpt lat="46.155445855110884" lon="8.162448015064001">
        <ele>1968.1900000000001</ele>
        <time>2025-02-23T12:27:22Z</time>
      </trkpt>
      <trkpt lat="46.155458763241768" lon="8.16257843747735">
        <ele>1967.9300000000001</ele>
        <time>2025-02-23T12:27:35Z</time>
      </trkpt>
      <trkpt lat="46.155468905344605" lon="8.16270349547267">
        <ele>1968.74</ele>
        <time>2025-02-23T12:27:51Z</time>
      </trkpt>
      <trkpt lat="46.155480304732919" lon="8.162835761904717">
        <ele>1970.3199999999999</ele>
        <time>2025-02-23T12:28:09Z</time>
      </trkpt>
      <trkpt lat="46.155495224520564" lon="8.162968866527081">
        <ele>1971.8099999999999</ele>
        <time>2025-02-23T12:28:28Z</time>
      </trkpt>
      <trkpt lat="46.155528584495187" lon="8.163108760491014">
        <ele>1973.8199999999999</ele>
        <time>2025-02-23T12:28:48Z</time>
      </trkpt>
      <trkpt lat="46.155543252825737" lon="8.163243792951107">
        <ele>1973.97</ele>
        <time>2025-02-23T12:29:13Z</time>
      </trkpt>
      <trkpt lat="46.155561022460461" lon="8.163364659994841">
        <ele>1973.46</ele>
        <time>2025-02-23T12:29:22Z</time>
      </trkpt>
      <trkpt lat="46.155579714104533" lon="8.16351511515677">
        <ele>1971.8099999999999</ele>
        <time>2025-02-23T12:29:32Z</time>
      </trkpt>
      <trkpt lat="46.155605195090175" lon="8.163634724915028">
        <ele>1969.49</ele>
        <time>2025-02-23T12:29:46Z</time>
      </trkpt>
      <trkpt lat="46.15563134662807" lon="8.163650063797832">
        <ele>1969.6099999999999</ele>
        <time>2025-02-23T12:30:41Z</time>
      </trkpt>
      <trkpt lat="46.155725056305528" lon="8.163689961656928">
        <ele>1967.9000000000001</ele>
        <time>2025-02-23T12:30:49Z</time>
      </trkpt>
      <trkpt lat="46.155822454020381" lon="8.163697170093656">
        <ele>1965.71</ele>
        <time>2025-02-23T12:30:57Z</time>
      </trkpt>
      <trkpt lat="46.15591524168849" lon="8.163694068789482">
        <ele>1963.51</ele>
        <time>2025-02-23T12:31:08Z</time>
      </trkpt>
      <trkpt lat="46.155832093209028" lon="8.163695493713021">
        <ele>1965.26</ele>
        <time>2025-02-23T12:31:44Z</time>
      </trkpt>
      <trkpt lat="46.15573544986546" lon="8.163671270012856">
        <ele>1967.6500000000001</ele>
        <time>2025-02-23T12:31:57Z</time>
      </trkpt>
      <trkpt lat="46.155641153454781" lon="8.163645537570119">
        <ele>1969.6400000000001</ele>
        <time>2025-02-23T12:32:23Z</time>
      </trkpt>
      <trkpt lat="46.155584659427404" lon="8.163711922243238">
        <ele>1969.9100000000001</ele>
        <time>2025-02-23T12:32:42Z</time>
      </trkpt>
      <trkpt lat="46.155556244775653" lon="8.163844523951411">
        <ele>1969.3</ele>
        <time>2025-02-23T12:32:56Z</time>
      </trkpt>
      <trkpt lat="46.155519364401698" lon="8.163969917222858">
        <ele>1967.9100000000001</ele>
        <time>2025-02-23T12:33:09Z</time>
      </trkpt>
      <trkpt lat="46.155521459877491" lon="8.164115343242884">
        <ele>1966.3900000000001</ele>
        <time>2025-02-23T12:33:23Z</time>
      </trkpt>
      <trkpt lat="46.155606200918555" lon="8.164178626611829">
        <ele>1965.6800000000001</ele>
        <time>2025-02-23T12:33:35Z</time>
      </trkpt>
      <trkpt lat="46.155642997473478" lon="8.164295721799135">
        <ele>1963.98</ele>
        <time>2025-02-23T12:33:52Z</time>
      </trkpt>
      <trkpt lat="46.155716925859451" lon="8.164374595507979">
        <ele>1962.8499999999999</ele>
        <time>2025-02-23T12:34:03Z</time>
      </trkpt>
      <trkpt lat="46.155795296654105" lon="8.164471741765738">
        <ele>1961.6900000000001</ele>
        <time>2025-02-23T12:34:15Z</time>
      </trkpt>
      <trkpt lat="46.155835781246424" lon="8.164580622687936">
        <ele>1959.4100000000001</ele>
        <time>2025-02-23T12:34:33Z</time>
      </trkpt>
      <trkpt lat="46.155861178413033" lon="8.164706099778414">
        <ele>1955.47</ele>
        <time>2025-02-23T12:34:47Z</time>
      </trkpt>
      <trkpt lat="46.155904177576303" lon="8.164819674566388">
        <ele>1951.2</ele>
        <time>2025-02-23T12:35:02Z</time>
      </trkpt>
      <trkpt lat="46.155985482037067" lon="8.164878850802779">
        <ele>1946.8499999999999</ele>
        <time>2025-02-23T12:35:21Z</time>
      </trkpt>
      <trkpt lat="46.156056644394994" lon="8.164956634864211">
        <ele>1941.77</ele>
        <time>2025-02-23T12:35:36Z</time>
      </trkpt>
      <trkpt lat="46.156124789267778" lon="8.165043639019132">
        <ele>1936.8499999999999</ele>
        <time>2025-02-23T12:35:52Z</time>
      </trkpt>
      <trkpt lat="46.156188910827041" lon="8.165132822468877">
        <ele>1931.8699999999999</ele>
        <time>2025-02-23T12:36:08Z</time>
      </trkpt>
      <trkpt lat="46.156258396804333" lon="8.165233489125967">
        <ele>1928.1800000000001</ele>
        <time>2025-02-23T12:36:22Z</time>
      </trkpt>
      <trkpt lat="46.156324781477451" lon="8.165334323421121">
        <ele>1925.26</ele>
        <time>2025-02-23T12:36:33Z</time>
      </trkpt>
      <trkpt lat="46.156390914693475" lon="8.165440857410431">
        <ele>1922.47</ele>
        <time>2025-02-23T12:36:43Z</time>
      </trkpt>
      <trkpt lat="46.156456461176276" lon="8.165550073608756">
        <ele>1920.4000000000001</ele>
        <time>2025-02-23T12:36:55Z</time>
      </trkpt>
      <trkpt lat="46.156538017094135" lon="8.165618637576699">
        <ele>1918.1500000000001</ele>
        <time>2025-02-23T12:37:07Z</time>
      </trkpt>
      <trkpt lat="46.156618902459741" lon="8.165672449395061">
        <ele>1914.8599999999999</ele>
        <time>2025-02-23T12:37:19Z</time>
      </trkpt>
      <trkpt lat="46.156680341809988" lon="8.165777809917927">
        <ele>1913.52</ele>
        <time>2025-02-23T12:37:29Z</time>
      </trkpt>
      <trkpt lat="46.156749073415995" lon="8.165864646434784">
        <ele>1911.4400000000001</ele>
        <time>2025-02-23T12:37:40Z</time>
      </trkpt>
      <trkpt lat="46.156818140298128" lon="8.165962127968669">
        <ele>1908.5699999999999</ele>
        <time>2025-02-23T12:37:50Z</time>
      </trkpt>
      <trkpt lat="46.156809339299798" lon="8.166052149608731">
        <ele>1907.3</ele>
        <time>2025-02-23T12:40:10Z</time>
      </trkpt>
      <trkpt lat="46.156810512766242" lon="8.166191037744284">
        <ele>1905.04</ele>
        <time>2025-02-23T12:40:21Z</time>
      </trkpt>
      <trkpt lat="46.156813027337193" lon="8.166327746585012">
        <ele>1902.8699999999999</ele>
        <time>2025-02-23T12:40:31Z</time>
      </trkpt>
      <trkpt lat="46.156854433938861" lon="8.166440315544605">
        <ele>1900.9200000000001</ele>
        <time>2025-02-23T12:40:46Z</time>
      </trkpt>
      <trkpt lat="46.156900702044368" lon="8.166557243093848">
        <ele>1899.5899999999999</ele>
        <time>2025-02-23T12:40:56Z</time>
      </trkpt>
      <trkpt lat="46.156949819996953" lon="8.16667852923274">
        <ele>1898.8299999999999</ele>
        <time>2025-02-23T12:41:06Z</time>
      </trkpt>
      <trkpt lat="46.15697898901999" lon="8.16680945456028">
        <ele>1897.0599999999999</ele>
        <time>2025-02-23T12:41:17Z</time>
      </trkpt>
      <trkpt lat="46.156997848302126" lon="8.166945157572627">
        <ele>1895.1600000000001</ele>
        <time>2025-02-23T12:41:39Z</time>
      </trkpt>
      <trkpt lat="46.15698242560029" lon="8.167080273851752">
        <ele>1893.52</ele>
        <time>2025-02-23T12:41:54Z</time>
      </trkpt>
      <trkpt lat="46.157000111415982" lon="8.167206589132547">
        <ele>1890.3599999999999</ele>
        <time>2025-02-23T12:42:05Z</time>
      </trkpt>
      <trkpt lat="46.157032800838351" lon="8.167319661006331">
        <ele>1887.95</ele>
        <time>2025-02-23T12:42:15Z</time>
      </trkpt>
      <trkpt lat="46.157029615715146" lon="8.167452178895474">
        <ele>1884.3599999999999</ele>
        <time>2025-02-23T12:42:25Z</time>
      </trkpt>
      <trkpt lat="46.157081332057714" lon="8.167558796703816">
        <ele>1881.48</ele>
        <time>2025-02-23T12:42:33Z</time>
      </trkpt>
      <trkpt lat="46.157069681212306" lon="8.167684860527515">
        <ele>1878.6199999999999</ele>
        <time>2025-02-23T12:42:43Z</time>
      </trkpt>
      <trkpt lat="46.157092647626996" lon="8.167812349274755">
        <ele>1875.54</ele>
        <time>2025-02-23T12:42:54Z</time>
      </trkpt>
      <trkpt lat="46.157084098085761" lon="8.167935982346535">
        <ele>1872.1900000000001</ele>
        <time>2025-02-23T12:43:04Z</time>
      </trkpt>
      <trkpt lat="46.157118463888764" lon="8.168066907674074">
        <ele>1869.3800000000001</ele>
        <time>2025-02-23T12:43:12Z</time>
      </trkpt>
      <trkpt lat="46.157153751701117" lon="8.168194061145186">
        <ele>1866.6600000000001</ele>
        <time>2025-02-23T12:43:21Z</time>
      </trkpt>
      <trkpt lat="46.157159870490432" lon="8.168335044756532">
        <ele>1863.8399999999999</ele>
        <time>2025-02-23T12:43:31Z</time>
      </trkpt>
      <trkpt lat="46.157145453616977" lon="8.168463120236993">
        <ele>1860.8900000000001</ele>
        <time>2025-02-23T12:43:40Z</time>
      </trkpt>
      <trkpt lat="46.157168252393603" lon="8.168606786057353">
        <ele>1857.8199999999999</ele>
        <time>2025-02-23T12:43:49Z</time>
      </trkpt>
      <trkpt lat="46.157186776399612" lon="8.168748440220952">
        <ele>1854.6099999999999</ele>
        <time>2025-02-23T12:43:57Z</time>
      </trkpt>
      <trkpt lat="46.157205048948526" lon="8.168877940624952">
        <ele>1851.29</ele>
        <time>2025-02-23T12:44:06Z</time>
      </trkpt>
      <trkpt lat="46.157211167737842" lon="8.168999562039971">
        <ele>1848.4200000000001</ele>
        <time>2025-02-23T12:44:24Z</time>
      </trkpt>
      <trkpt lat="46.157215358689427" lon="8.169143479317427">
        <ele>1844.1800000000001</ele>
        <time>2025-02-23T12:44:41Z</time>
      </trkpt>
      <trkpt lat="46.157227009534836" lon="8.169283038005233">
        <ele>1840.96</ele>
        <time>2025-02-23T12:44:52Z</time>
      </trkpt>
      <trkpt lat="46.157191721722484" lon="8.169411951676011">
        <ele>1840.3800000000001</ele>
        <time>2025-02-23T12:45:03Z</time>
      </trkpt>
      <trkpt lat="46.157216280698776" lon="8.169545894488692">
        <ele>1839.7</ele>
        <time>2025-02-23T12:45:14Z</time>
      </trkpt>
      <trkpt lat="46.157237151637673" lon="8.169673383235931">
        <ele>1839.25</ele>
        <time>2025-02-23T12:45:26Z</time>
      </trkpt>
      <trkpt lat="46.157210078090429" lon="8.169814283028245">
        <ele>1838.5</ele>
        <time>2025-02-23T12:45:37Z</time>
      </trkpt>
      <trkpt lat="46.15717152133584" lon="8.169942609965801">
        <ele>1837.9300000000001</ele>
        <time>2025-02-23T12:45:48Z</time>
      </trkpt>
      <trkpt lat="46.157137993723154" lon="8.170078312978149">
        <ele>1837.6600000000001</ele>
        <time>2025-02-23T12:46:01Z</time>
      </trkpt>
      <trkpt lat="46.157118631526828" lon="8.170201191678643">
        <ele>1837.1199999999999</ele>
        <time>2025-02-23T12:46:10Z</time>
      </trkpt>
      <trkpt lat="46.157067250460386" lon="8.170303367078304">
        <ele>1836.8800000000001</ele>
        <time>2025-02-23T12:46:19Z</time>
      </trkpt>
      <trkpt lat="46.157018970698118" lon="8.170405123382807">
        <ele>1836.1300000000001</ele>
        <time>2025-02-23T12:46:28Z</time>
      </trkpt>
      <trkpt lat="46.156970271840692" lon="8.17051324993372">
        <ele>1835.8399999999999</ele>
        <time>2025-02-23T12:46:37Z</time>
      </trkpt>
      <trkpt lat="46.156920399516821" lon="8.170621544122696">
        <ele>1835.79</ele>
        <time>2025-02-23T12:46:46Z</time>
      </trkpt>
      <trkpt lat="46.15687346085906" lon="8.170736711472273">
        <ele>1835.3299999999999</ele>
        <time>2025-02-23T12:46:55Z</time>
      </trkpt>
      <trkpt lat="46.156827360391617" lon="8.170851124450564">
        <ele>1835.01</ele>
        <time>2025-02-23T12:47:04Z</time>
      </trkpt>
      <trkpt lat="46.1567815952003" lon="8.170967716723681">
        <ele>1834.6800000000001</ele>
        <time>2025-02-23T12:47:13Z</time>
      </trkpt>
      <trkpt lat="46.156735494732857" lon="8.171082464978099">
        <ele>1834.6500000000001</ele>
        <time>2025-02-23T12:47:22Z</time>
      </trkpt>
      <trkpt lat="46.156677911058068" lon="8.171189669519663">
        <ele>1834.29</ele>
        <time>2025-02-23T12:47:31Z</time>
      </trkpt>
      <trkpt lat="46.1566261947155" lon="8.171311793848872">
        <ele>1834.55</ele>
        <time>2025-02-23T12:47:41Z</time>
      </trkpt>
      <trkpt lat="46.15658562630415" lon="8.171435594558716">
        <ele>1834.5699999999999</ele>
        <time>2025-02-23T12:47:50Z</time>
      </trkpt>
      <trkpt lat="46.156545644626021" lon="8.171562664210796">
        <ele>1834.6600000000001</ele>
        <time>2025-02-23T12:48:00Z</time>
      </trkpt>
      <trkpt lat="46.156504489481449" lon="8.171679340302944">
        <ele>1834.5599999999999</ele>
        <time>2025-02-23T12:48:09Z</time>
      </trkpt>
      <trkpt lat="46.15646249614656" lon="8.171802051365376">
        <ele>1834.5599999999999</ele>
        <time>2025-02-23T12:48:19Z</time>
      </trkpt>
      <trkpt lat="46.156439026817679" lon="8.171900203451514">
        <ele>1834.8299999999999</ele>
        <time>2025-02-23T12:49:33Z</time>
      </trkpt>
      <trkpt lat="46.156429136171937" lon="8.172042360529304">
        <ele>1835.3</ele>
        <time>2025-02-23T12:49:48Z</time>
      </trkpt>
      <trkpt lat="46.156441709026694" lon="8.172188457101584">
        <ele>1835.8299999999999</ele>
        <time>2025-02-23T12:50:13Z</time>
      </trkpt>
      <trkpt lat="46.156468950212002" lon="8.172330865636468">
        <ele>1835.6900000000001</ele>
        <time>2025-02-23T12:50:23Z</time>
      </trkpt>
      <trkpt lat="46.156471045687795" lon="8.172480901703239">
        <ele>1835.0799999999999</ele>
        <time>2025-02-23T12:50:49Z</time>
      </trkpt>
      <trkpt lat="46.156483618542552" lon="8.172620963305235">
        <ele>1834.99</ele>
        <time>2025-02-23T12:50:58Z</time>
      </trkpt>
      <trkpt lat="46.156501136720181" lon="8.172759851440787">
        <ele>1834.9000000000001</ele>
        <time>2025-02-23T12:51:07Z</time>
      </trkpt>
      <trkpt lat="46.156509267166257" lon="8.172903349623084">
        <ele>1835.0799999999999</ele>
        <time>2025-02-23T12:51:18Z</time>
      </trkpt>
      <trkpt lat="46.156526198610663" lon="8.173047602176666">
        <ele>1835.1199999999999</ele>
        <time>2025-02-23T12:51:27Z</time>
      </trkpt>
      <trkpt lat="46.156541118398309" lon="8.173184981569648">
        <ele>1835.1400000000001</ele>
        <time>2025-02-23T12:51:36Z</time>
      </trkpt>
      <trkpt lat="46.156552266329527" lon="8.173312051221728">
        <ele>1834.1099999999999</ele>
        <time>2025-02-23T12:51:44Z</time>
      </trkpt>
      <trkpt lat="46.156542040407658" lon="8.173446161672473">
        <ele>1833.3599999999999</ele>
        <time>2025-02-23T12:51:53Z</time>
      </trkpt>
      <trkpt lat="46.156547153368592" lon="8.173584211617708">
        <ele>1832.9000000000001</ele>
        <time>2025-02-23T12:52:02Z</time>
      </trkpt>
      <trkpt lat="46.156503735110164" lon="8.17370792850852">
        <ele>1832.1400000000001</ele>
        <time>2025-02-23T12:52:11Z</time>
      </trkpt>
      <trkpt lat="46.156495604664087" lon="8.173844888806343">
        <ele>1831.0599999999999</ele>
        <time>2025-02-23T12:52:20Z</time>
      </trkpt>
      <trkpt lat="46.156440451741219" lon="8.173955697566271">
        <ele>1830.73</ele>
        <time>2025-02-23T12:52:29Z</time>
      </trkpt>
      <trkpt lat="46.156398709863424" lon="8.174081342294812">
        <ele>1829.77</ele>
        <time>2025-02-23T12:52:38Z</time>
      </trkpt>
      <trkpt lat="46.156335175037384" lon="8.174196844920516">
        <ele>1829.5899999999999</ele>
        <time>2025-02-23T12:52:48Z</time>
      </trkpt>
      <trkpt lat="46.156306425109506" lon="8.174328440800309">
        <ele>1828.9400000000001</ele>
        <time>2025-02-23T12:52:57Z</time>
      </trkpt>
      <trkpt lat="46.156249595806003" lon="8.174438830465078">
        <ele>1829.21</ele>
        <time>2025-02-23T12:53:08Z</time>
      </trkpt>
      <trkpt lat="46.156189916655421" lon="8.174547124654055">
        <ele>1826.98</ele>
        <time>2025-02-23T12:53:21Z</time>
      </trkpt>
      <trkpt lat="46.156123531982303" lon="8.174660028889775">
        <ele>1823.4200000000001</ele>
        <time>2025-02-23T12:53:37Z</time>
      </trkpt>
      <trkpt lat="46.156035857275128" lon="8.174618873745203">
        <ele>1820.9100000000001</ele>
        <time>2025-02-23T12:53:59Z</time>
      </trkpt>
      <trkpt lat="46.155917756259441" lon="8.174607222899795">
        <ele>1818.71</ele>
        <time>2025-02-23T12:54:36Z</time>
      </trkpt>
      <trkpt lat="46.155880372971296" lon="8.174686431884766">
        <ele>1817.1400000000001</ele>
        <time>2025-02-23T12:54:49Z</time>
      </trkpt>
      <trkpt lat="46.155837876722217" lon="8.174741500988603">
        <ele>1813.76</ele>
        <time>2025-02-23T12:55:00Z</time>
      </trkpt>
      <trkpt lat="46.15574668161571" lon="8.17471350543201">
        <ele>1811.4300000000001</ele>
        <time>2025-02-23T12:55:12Z</time>
      </trkpt>
      <trkpt lat="46.155661102384329" lon="8.174750134348869">
        <ele>1810.1700000000001</ele>
        <time>2025-02-23T12:55:24Z</time>
      </trkpt>
      <trkpt lat="46.155573930591345" lon="8.174805035814643">
        <ele>1807.3099999999999</ele>
        <time>2025-02-23T12:55:36Z</time>
      </trkpt>
      <trkpt lat="46.155487596988678" lon="8.174833199009299">
        <ele>1804.6800000000001</ele>
        <time>2025-02-23T12:55:47Z</time>
      </trkpt>
      <trkpt lat="46.155415009707212" lon="8.17490603774786">
        <ele>1801.5</ele>
        <time>2025-02-23T12:56:00Z</time>
      </trkpt>
      <trkpt lat="46.155467480421066" lon="8.175030425190926">
        <ele>1798.8499999999999</ele>
        <time>2025-02-23T12:56:12Z</time>
      </trkpt>
      <trkpt lat="46.155505701899529" lon="8.175152046605945">
        <ele>1796.26</ele>
        <time>2025-02-23T12:56:23Z</time>
      </trkpt>
      <trkpt lat="46.155446944758296" lon="8.175226813182235">
        <ele>1792.8</ele>
        <time>2025-02-23T12:56:34Z</time>
      </trkpt>
      <trkpt lat="46.155356420204043" lon="8.175230417400599">
        <ele>1790.98</ele>
        <time>2025-02-23T12:56:45Z</time>
      </trkpt>
      <trkpt lat="46.155327251181006" lon="8.175340052694082">
        <ele>1787.6700000000001</ele>
        <time>2025-02-23T12:56:58Z</time>
      </trkpt>
      <trkpt lat="46.155352229252458" lon="8.175481371581554">
        <ele>1785.51</ele>
        <time>2025-02-23T12:57:07Z</time>
      </trkpt>
      <trkpt lat="46.155367735773325" lon="8.17562478594482">
        <ele>1783.0999999999999</ele>
        <time>2025-02-23T12:57:17Z</time>
      </trkpt>
      <trkpt lat="46.155399503186345" lon="8.175757890567184">
        <ele>1780.74</ele>
        <time>2025-02-23T12:57:26Z</time>
      </trkpt>
      <trkpt lat="46.155393216758966" lon="8.175900299102068">
        <ele>1777.8099999999999</ele>
        <time>2025-02-23T12:57:36Z</time>
      </trkpt>
      <trkpt lat="46.155382571741939" lon="8.176043462008238">
        <ele>1775.1900000000001</ele>
        <time>2025-02-23T12:57:47Z</time>
      </trkpt>
      <trkpt lat="46.155323311686516" lon="8.17617061547935">
        <ele>1773.27</ele>
        <time>2025-02-23T12:57:57Z</time>
      </trkpt>
      <trkpt lat="46.155280396342278" lon="8.176311431452632">
        <ele>1770.52</ele>
        <time>2025-02-23T12:58:07Z</time>
      </trkpt>
      <trkpt lat="46.155284587293863" lon="8.176474375650287">
        <ele>1768.8900000000001</ele>
        <time>2025-02-23T12:58:17Z</time>
      </trkpt>
      <trkpt lat="46.155306128785014" lon="8.176603373140097">
        <ele>1767.4400000000001</ele>
        <time>2025-02-23T12:58:27Z</time>
      </trkpt>
      <trkpt lat="46.155249970033765" lon="8.176725832745433">
        <ele>1765.75</ele>
        <time>2025-02-23T12:58:39Z</time>
      </trkpt>
      <trkpt lat="46.15519305691123" lon="8.176837647333741">
        <ele>1764.3</ele>
        <time>2025-02-23T12:58:49Z</time>
      </trkpt>
      <trkpt lat="46.155138658359647" lon="8.17695926874876">
        <ele>1761.9200000000001</ele>
        <time>2025-02-23T12:58:59Z</time>
      </trkpt>
      <trkpt lat="46.155076380819082" lon="8.177080554887652">
        <ele>1758.8199999999999</ele>
        <time>2025-02-23T12:59:10Z</time>
      </trkpt>
      <trkpt lat="46.155056767165661" lon="8.17724023014307">
        <ele>1756.1600000000001</ele>
        <time>2025-02-23T12:59:20Z</time>
      </trkpt>
      <trkpt lat="46.155024664476514" lon="8.177378950640559">
        <ele>1754.8199999999999</ele>
        <time>2025-02-23T12:59:30Z</time>
      </trkpt>
      <trkpt lat="46.155015863478184" lon="8.177533932030201">
        <ele>1753.97</ele>
        <time>2025-02-23T12:59:40Z</time>
      </trkpt>
      <trkpt lat="46.154992142692208" lon="8.177678184583783">
        <ele>1753.1800000000001</ele>
        <time>2025-02-23T12:59:50Z</time>
      </trkpt>
      <trkpt lat="46.154953753575683" lon="8.177819503471255">
        <ele>1752.23</ele>
        <time>2025-02-23T13:00:15Z</time>
      </trkpt>
      <trkpt lat="46.154904551804066" lon="8.177956463769078">
        <ele>1749.55</ele>
        <time>2025-02-23T13:00:25Z</time>
      </trkpt>
      <trkpt lat="46.154861049726605" lon="8.178082443773747">
        <ele>1749.6300000000001</ele>
        <time>2025-02-23T13:00:35Z</time>
      </trkpt>
      <trkpt lat="46.154811596497893" lon="8.178198700770736">
        <ele>1750.0899999999999</ele>
        <time>2025-02-23T13:00:45Z</time>
      </trkpt>
      <trkpt lat="46.154719898477197" lon="8.178260056301951">
        <ele>1748.3599999999999</ele>
        <time>2025-02-23T13:00:54Z</time>
      </trkpt>
      <trkpt lat="46.154645048081875" lon="8.178354520350695">
        <ele>1747.3599999999999</ele>
        <time>2025-02-23T13:01:04Z</time>
      </trkpt>
      <trkpt lat="46.154551589861512" lon="8.178368434309959">
        <ele>1746.54</ele>
        <time>2025-02-23T13:01:14Z</time>
      </trkpt>
      <trkpt lat="46.154446229338646" lon="8.178399028256536">
        <ele>1746.76</ele>
        <time>2025-02-23T13:01:25Z</time>
      </trkpt>
      <trkpt lat="46.154367355629802" lon="8.178466418758035">
        <ele>1747.79</ele>
        <time>2025-02-23T13:01:37Z</time>
      </trkpt>
      <trkpt lat="46.154398620128632" lon="8.178582172840834">
        <ele>1745.29</ele>
        <time>2025-02-23T13:01:55Z</time>
      </trkpt>
      <trkpt lat="46.154440278187394" lon="8.178697424009442">
        <ele>1743.4300000000001</ele>
        <time>2025-02-23T13:02:06Z</time>
      </trkpt>
      <trkpt lat="46.154474560171366" lon="8.178807394579053">
        <ele>1741.0999999999999</ele>
        <time>2025-02-23T13:02:21Z</time>
      </trkpt>
      <trkpt lat="46.154385711997747" lon="8.178794234991074">
        <ele>1738.4100000000001</ele>
        <time>2025-02-23T13:02:32Z</time>
      </trkpt>
      <trkpt lat="46.154419407248497" lon="8.178932536393404">
        <ele>1735.0599999999999</ele>
        <time>2025-02-23T13:02:48Z</time>
      </trkpt>
      <trkpt lat="46.154423011466861" lon="8.179078046232462">
        <ele>1732.4000000000001</ele>
        <time>2025-02-23T13:02:59Z</time>
      </trkpt>
      <trkpt lat="46.154418736696243" lon="8.179236799478531">
        <ele>1729.3099999999999</ele>
        <time>2025-02-23T13:03:08Z</time>
      </trkpt>
      <trkpt lat="46.15439367480576" lon="8.179403431713581">
        <ele>1725.99</ele>
        <time>2025-02-23T13:03:20Z</time>
      </trkpt>
      <trkpt lat="46.154369451105595" lon="8.179563861340284">
        <ele>1723.01</ele>
        <time>2025-02-23T13:03:32Z</time>
      </trkpt>
      <trkpt lat="46.154362577944994" lon="8.17972831428051">
        <ele>1720.5</ele>
        <time>2025-02-23T13:03:43Z</time>
      </trkpt>
      <trkpt lat="46.154368864372373" lon="8.179874746128917">
        <ele>1718.4400000000001</ele>
        <time>2025-02-23T13:03:54Z</time>
      </trkpt>
      <trkpt lat="46.154288146644831" lon="8.180006258189678">
        <ele>1715.77</ele>
        <time>2025-02-23T13:04:07Z</time>
      </trkpt>
      <trkpt lat="46.154277753084898" lon="8.180162915959954">
        <ele>1713.7</ele>
        <time>2025-02-23T13:04:19Z</time>
      </trkpt>
      <trkpt lat="46.154190581291914" lon="8.180254697799683">
        <ele>1711.74</ele>
        <time>2025-02-23T13:04:31Z</time>
      </trkpt>
      <trkpt lat="46.154145402833819" lon="8.180403141304851">
        <ele>1709.6600000000001</ele>
        <time>2025-02-23T13:04:43Z</time>
      </trkpt>
      <trkpt lat="46.154128639027476" lon="8.180575473234057">
        <ele>1707.3099999999999</ele>
        <time>2025-02-23T13:04:57Z</time>
      </trkpt>
      <trkpt lat="46.154062589630485" lon="8.180707488209009">
        <ele>1705.6199999999999</ele>
        <time>2025-02-23T13:05:07Z</time>
      </trkpt>
      <trkpt lat="46.15402084775269" lon="8.180856769904494">
        <ele>1703.5599999999999</ele>
        <time>2025-02-23T13:05:19Z</time>
      </trkpt>
      <trkpt lat="46.153979608789086" lon="8.181005297228694">
        <ele>1701.8399999999999</ele>
        <time>2025-02-23T13:05:32Z</time>
      </trkpt>
      <trkpt lat="46.153956893831491" lon="8.181137479841709">
        <ele>1699.4400000000001</ele>
        <time>2025-02-23T13:05:46Z</time>
      </trkpt>
      <trkpt lat="46.153918001800776" lon="8.181320037692785">
        <ele>1697.97</ele>
        <time>2025-02-23T13:05:57Z</time>
      </trkpt>
      <trkpt lat="46.153873996809125" lon="8.181468732655048">
        <ele>1696.52</ele>
        <time>2025-02-23T13:06:08Z</time>
      </trkpt>
      <trkpt lat="46.15388061851263" lon="8.18168431520462">
        <ele>1695.51</ele>
        <time>2025-02-23T13:06:20Z</time>
      </trkpt>
      <trkpt lat="46.153848432004452" lon="8.181826053187251">
        <ele>1693.5599999999999</ele>
        <time>2025-02-23T13:06:33Z</time>
      </trkpt>
      <trkpt lat="46.153846336528659" lon="8.182019842788577">
        <ele>1691.5</ele>
        <time>2025-02-23T13:06:48Z</time>
      </trkpt>
      <trkpt lat="46.153830662369728" lon="8.182202568277717">
        <ele>1689.5699999999999</ele>
        <time>2025-02-23T13:07:02Z</time>
      </trkpt>
      <trkpt lat="46.153859328478575" lon="8.182373978197575">
        <ele>1688.6700000000001</ele>
        <time>2025-02-23T13:07:12Z</time>
      </trkpt>
      <trkpt lat="46.153819095343351" lon="8.182521415874362">
        <ele>1687.5</ele>
        <time>2025-02-23T13:07:22Z</time>
      </trkpt>
      <trkpt lat="46.153832003474236" lon="8.182683773338795">
        <ele>1686.6300000000001</ele>
        <time>2025-02-23T13:07:34Z</time>
      </trkpt>
      <trkpt lat="46.153803253546357" lon="8.182833977043629">
        <ele>1684.9300000000001</ele>
        <time>2025-02-23T13:07:47Z</time>
      </trkpt>
      <trkpt lat="46.153762182220817" lon="8.182971859350801">
        <ele>1682.3399999999999</ele>
        <time>2025-02-23T13:08:00Z</time>
      </trkpt>
      <trkpt lat="46.153697390109301" lon="8.183106305077672">
        <ele>1678.73</ele>
        <time>2025-02-23T13:08:14Z</time>
      </trkpt>
      <trkpt lat="46.153696468099952" lon="8.183254580944777">
        <ele>1677.4100000000001</ele>
        <time>2025-02-23T13:08:28Z</time>
      </trkpt>
      <trkpt lat="46.153714405372739" lon="8.183389361947775">
        <ele>1677.78</ele>
        <time>2025-02-23T13:08:38Z</time>
      </trkpt>
      <trkpt lat="46.153652044013143" lon="8.183535542339087">
        <ele>1676.9200000000001</ele>
        <time>2025-02-23T13:08:54Z</time>
      </trkpt>
      <trkpt lat="46.153660761192441" lon="8.183689601719379">
        <ele>1676.1800000000001</ele>
        <time>2025-02-23T13:09:08Z</time>
      </trkpt>
      <trkpt lat="46.15367048420012" lon="8.183840895071626">
        <ele>1675.9300000000001</ele>
        <time>2025-02-23T13:09:18Z</time>
      </trkpt>
      <trkpt lat="46.153675429522991" lon="8.183977352455258">
        <ele>1675.9400000000001</ele>
        <time>2025-02-23T13:09:29Z</time>
      </trkpt>
      <trkpt lat="46.15366168320179" lon="8.184167454019189">
        <ele>1675.74</ele>
        <time>2025-02-23T13:09:44Z</time>
      </trkpt>
      <trkpt lat="46.153618851676583" lon="8.18437272682786">
        <ele>1676.04</ele>
        <time>2025-02-23T13:09:56Z</time>
      </trkpt>
      <trkpt lat="46.153573589399457" lon="8.184505412355065">
        <ele>1675.3199999999999</ele>
        <time>2025-02-23T13:10:05Z</time>
      </trkpt>
      <trkpt lat="46.153508545830846" lon="8.184627452865243">
        <ele>1674.6400000000001</ele>
        <time>2025-02-23T13:10:14Z</time>
      </trkpt>
      <trkpt lat="46.153442664071918" lon="8.1847401894629">
        <ele>1674.0699999999999</ele>
        <time>2025-02-23T13:10:24Z</time>
      </trkpt>
      <trkpt lat="46.153363958001137" lon="8.184841778129339">
        <ele>1672.8299999999999</ele>
        <time>2025-02-23T13:10:36Z</time>
      </trkpt>
      <trkpt lat="46.153279971331358" lon="8.184956610202789">
        <ele>1672.5999999999999</ele>
        <time>2025-02-23T13:10:47Z</time>
      </trkpt>
      <trkpt lat="46.153231607750058" lon="8.185089631006122">
        <ele>1672.0699999999999</ele>
        <time>2025-02-23T13:10:56Z</time>
      </trkpt>
      <trkpt lat="46.153213083744049" lon="8.185241175815463">
        <ele>1671.8099999999999</ele>
        <time>2025-02-23T13:11:06Z</time>
      </trkpt>
      <trkpt lat="46.153165977448225" lon="8.18538760766387">
        <ele>1671.48</ele>
        <time>2025-02-23T13:11:15Z</time>
      </trkpt>
      <trkpt lat="46.153077548369765" lon="8.185479892417789">
        <ele>1670.22</ele>
        <time>2025-02-23T13:11:26Z</time>
      </trkpt>
      <trkpt lat="46.152994651347399" lon="8.18563143722713">
        <ele>1669.4100000000001</ele>
        <time>2025-02-23T13:11:37Z</time>
      </trkpt>
      <trkpt lat="46.152949891984463" lon="8.185772420838475">
        <ele>1668.28</ele>
        <time>2025-02-23T13:11:45Z</time>
      </trkpt>
      <trkpt lat="46.15291703492403" lon="8.185900580137968">
        <ele>1666.77</ele>
        <time>2025-02-23T13:11:53Z</time>
      </trkpt>
      <trkpt lat="46.15290186367929" lon="8.186048101633787">
        <ele>1666.3699999999999</ele>
        <time>2025-02-23T13:12:02Z</time>
      </trkpt>
      <trkpt lat="46.152894990518689" lon="8.186223115772009">
        <ele>1666.78</ele>
        <time>2025-02-23T13:12:14Z</time>
      </trkpt>
      <trkpt lat="46.152841346338391" lon="8.186374744400382">
        <ele>1666.7</ele>
        <time>2025-02-23T13:12:23Z</time>
      </trkpt>
      <trkpt lat="46.152744451537728" lon="8.186452277004719">
        <ele>1665.22</ele>
        <time>2025-02-23T13:12:33Z</time>
      </trkpt>
      <trkpt lat="46.152660129591823" lon="8.186530647799373">
        <ele>1665.22</ele>
        <time>2025-02-23T13:12:43Z</time>
      </trkpt>
      <trkpt lat="46.152587123215199" lon="8.186668446287513">
        <ele>1661.26</ele>
        <time>2025-02-23T13:12:54Z</time>
      </trkpt>
      <trkpt lat="46.152511518448591" lon="8.186788139864802">
        <ele>1659.7</ele>
        <time>2025-02-23T13:13:02Z</time>
      </trkpt>
      <trkpt lat="46.152447145432234" lon="8.186922585591674">
        <ele>1658.3399999999999</ele>
        <time>2025-02-23T13:13:11Z</time>
      </trkpt>
      <trkpt lat="46.152387969195843" lon="8.187061892822385">
        <ele>1657.72</ele>
        <time>2025-02-23T13:13:21Z</time>
      </trkpt>
      <trkpt lat="46.152351340278983" lon="8.187209498137236">
        <ele>1657.01</ele>
        <time>2025-02-23T13:13:30Z</time>
      </trkpt>
      <trkpt lat="46.152332397177815" lon="8.187389206141233">
        <ele>1656.55</ele>
        <time>2025-02-23T13:13:43Z</time>
      </trkpt>
      <trkpt lat="46.152311861515045" lon="8.18754393607378">
        <ele>1656.6500000000001</ele>
        <time>2025-02-23T13:13:54Z</time>
      </trkpt>
      <trkpt lat="46.15227984264493" lon="8.187732612714171">
        <ele>1656.75</ele>
        <time>2025-02-23T13:14:05Z</time>
      </trkpt>
      <trkpt lat="46.152241202071309" lon="8.18790452554822">
        <ele>1656.6400000000001</ele>
        <time>2025-02-23T13:14:15Z</time>
      </trkpt>
      <trkpt lat="46.152183031663299" lon="8.188051292672753">
        <ele>1655.71</ele>
        <time>2025-02-23T13:14:26Z</time>
      </trkpt>
      <trkpt lat="46.152143804356456" lon="8.188200071454048">
        <ele>1654.5999999999999</ele>
        <time>2025-02-23T13:14:36Z</time>
      </trkpt>
      <trkpt lat="46.152146486565471" lon="8.188355220481753">
        <ele>1653.3</ele>
        <time>2025-02-23T13:14:46Z</time>
      </trkpt>
      <trkpt lat="46.152122179046273" lon="8.188506513834">
        <ele>1651.8499999999999</ele>
        <time>2025-02-23T13:14:57Z</time>
      </trkpt>
      <trkpt lat="46.152088986709714" lon="8.188658896833658">
        <ele>1651.27</ele>
        <time>2025-02-23T13:15:07Z</time>
      </trkpt>
      <trkpt lat="46.152033330872655" lon="8.188803568482399">
        <ele>1650.5999999999999</ele>
        <time>2025-02-23T13:15:17Z</time>
      </trkpt>
      <trkpt lat="46.151969209313393" lon="8.188939606770873">
        <ele>1649.24</ele>
        <time>2025-02-23T13:15:26Z</time>
      </trkpt>
      <trkpt lat="46.151931155472994" lon="8.189079584553838">
        <ele>1647.6800000000001</ele>
        <time>2025-02-23T13:15:37Z</time>
      </trkpt>
      <trkpt lat="46.151897544041276" lon="8.189228111878038">
        <ele>1645.9100000000001</ele>
        <time>2025-02-23T13:15:49Z</time>
      </trkpt>
      <trkpt lat="46.151831159368157" lon="8.189387787133455">
        <ele>1645.4100000000001</ele>
        <time>2025-02-23T13:16:01Z</time>
      </trkpt>
      <trkpt lat="46.151780365034938" lon="8.189524998888373">
        <ele>1644.8599999999999</ele>
        <time>2025-02-23T13:16:09Z</time>
      </trkpt>
      <trkpt lat="46.15171741694212" lon="8.189656008034945">
        <ele>1644.4300000000001</ele>
        <time>2025-02-23T13:16:18Z</time>
      </trkpt>
      <trkpt lat="46.151654301211238" lon="8.189767571166158">
        <ele>1643.8599999999999</ele>
        <time>2025-02-23T13:16:27Z</time>
      </trkpt>
      <trkpt lat="46.151593029499054" lon="8.189886091277003">
        <ele>1643.6900000000001</ele>
        <time>2025-02-23T13:16:37Z</time>
      </trkpt>
      <trkpt lat="46.151533266529441" lon="8.19006085395813">
        <ele>1643.24</ele>
        <time>2025-02-23T13:16:50Z</time>
      </trkpt>
      <trkpt lat="46.151510132476687" lon="8.190229581668973">
        <ele>1643.3299999999999</ele>
        <time>2025-02-23T13:16:59Z</time>
      </trkpt>
      <trkpt lat="46.151498230174184" lon="8.190363356843591">
        <ele>1643.04</ele>
        <time>2025-02-23T13:17:09Z</time>
      </trkpt>
      <trkpt lat="46.151449866592884" lon="8.190508531406522">
        <ele>1642.5799999999999</ele>
        <time>2025-02-23T13:17:19Z</time>
      </trkpt>
      <trkpt lat="46.151414243504405" lon="8.190653370693326">
        <ele>1642.27</ele>
        <time>2025-02-23T13:17:29Z</time>
      </trkpt>
      <trkpt lat="46.151369400322437" lon="8.19080893881619">
        <ele>1641.5899999999999</ele>
        <time>2025-02-23T13:17:40Z</time>
      </trkpt>
      <trkpt lat="46.151344673708081" lon="8.190964926034212">
        <ele>1640.8900000000001</ele>
        <time>2025-02-23T13:17:52Z</time>
      </trkpt>
      <trkpt lat="46.151322880759835" lon="8.191198697313666">
        <ele>1640.99</ele>
        <time>2025-02-23T13:18:07Z</time>
      </trkpt>
      <trkpt lat="46.151297902688384" lon="8.191390056163073">
        <ele>1640.7</ele>
        <time>2025-02-23T13:18:17Z</time>
      </trkpt>
      <trkpt lat="46.151314834132791" lon="8.191543193534017">
        <ele>1640.95</ele>
        <time>2025-02-23T13:18:28Z</time>
      </trkpt>
      <trkpt lat="46.151312990114093" lon="8.191703455522656">
        <ele>1640.5799999999999</ele>
        <time>2025-02-23T13:18:39Z</time>
      </trkpt>
      <trkpt lat="46.15132212638855" lon="8.191864304244518">
        <ele>1640.8599999999999</ele>
        <time>2025-02-23T13:18:50Z</time>
      </trkpt>
      <trkpt lat="46.151354564353824" lon="8.191997827962041">
        <ele>1640.3299999999999</ele>
        <time>2025-02-23T13:19:01Z</time>
      </trkpt>
      <trkpt lat="46.151329837739468" lon="8.192207375541329">
        <ele>1640.28</ele>
        <time>2025-02-23T13:19:13Z</time>
      </trkpt>
      <trkpt lat="46.15134802646935" lon="8.192363195121288">
        <ele>1639.96</ele>
        <time>2025-02-23T13:19:23Z</time>
      </trkpt>
      <trkpt lat="46.151369148865342" lon="8.192517086863518">
        <ele>1639.6300000000001</ele>
        <time>2025-02-23T13:19:32Z</time>
      </trkpt>
      <trkpt lat="46.151392702013254" lon="8.192653963342309">
        <ele>1639.3499999999999</ele>
        <time>2025-02-23T13:19:44Z</time>
      </trkpt>
      <trkpt lat="46.151385912671685" lon="8.192842891439796">
        <ele>1639.24</ele>
        <time>2025-02-23T13:19:55Z</time>
      </trkpt>
      <trkpt lat="46.151395719498396" lon="8.192995609715581">
        <ele>1639.22</ele>
        <time>2025-02-23T13:20:05Z</time>
      </trkpt>
      <trkpt lat="46.151404855772853" lon="8.19315386004746">
        <ele>1638.78</ele>
        <time>2025-02-23T13:20:17Z</time>
      </trkpt>
      <trkpt lat="46.151463948190212" lon="8.193270955234766">
        <ele>1639.51</ele>
        <time>2025-02-23T13:20:31Z</time>
      </trkpt>
      <trkpt lat="46.151508037000895" lon="8.1933400221169">
        <ele>1638.05</ele>
        <time>2025-02-23T13:20:43Z</time>
      </trkpt>
      <trkpt lat="46.151570398360491" lon="8.193398360162973">
        <ele>1637.3299999999999</ele>
        <time>2025-02-23T13:20:53Z</time>
      </trkpt>
      <trkpt lat="46.151623707264662" lon="8.193502798676491">
        <ele>1637.52</ele>
        <time>2025-02-23T13:21:03Z</time>
      </trkpt>
      <trkpt lat="46.151668131351471" lon="8.193602627143264">
        <ele>1636.6199999999999</ele>
        <time>2025-02-23T13:21:12Z</time>
      </trkpt>
      <trkpt lat="46.15170132368803" lon="8.193723242729902">
        <ele>1635.3</ele>
        <time>2025-02-23T13:21:22Z</time>
      </trkpt>
      <trkpt lat="46.151711130514741" lon="8.193857185542584">
        <ele>1633.8800000000001</ele>
        <time>2025-02-23T13:21:33Z</time>
      </trkpt>
      <trkpt lat="46.151740634813905" lon="8.193990038707852">
        <ele>1632.52</ele>
        <time>2025-02-23T13:21:43Z</time>
      </trkpt>
      <trkpt lat="46.15177265368402" lon="8.194132531061769">
        <ele>1631.76</ele>
        <time>2025-02-23T13:21:52Z</time>
      </trkpt>
      <trkpt lat="46.151804085820913" lon="8.194269742816687">
        <ele>1630.76</ele>
        <time>2025-02-23T13:22:01Z</time>
      </trkpt>
      <trkpt lat="46.151836020871997" lon="8.194426400586963">
        <ele>1629.76</ele>
        <time>2025-02-23T13:22:10Z</time>
      </trkpt>
      <trkpt lat="46.15186938084662" lon="8.194563360884786">
        <ele>1629.0799999999999</ele>
        <time>2025-02-23T13:22:19Z</time>
      </trkpt>
      <trkpt lat="46.151911206543446" lon="8.194648940116167">
        <ele>1628.5699999999999</ele>
        <time>2025-02-23T13:22:26Z</time>
      </trkpt>
      <trkpt lat="46.151961581781507" lon="8.194783050566912">
        <ele>1628.3699999999999</ele>
        <time>2025-02-23T13:22:35Z</time>
      </trkpt>
      <trkpt lat="46.151996366679668" lon="8.194926967844367">
        <ele>1628.6500000000001</ele>
        <time>2025-02-23T13:22:45Z</time>
      </trkpt>
      <trkpt lat="46.151981614530087" lon="8.195057474076748">
        <ele>1628.8699999999999</ele>
        <time>2025-02-23T13:22:56Z</time>
      </trkpt>
      <trkpt lat="46.151921013370156" lon="8.195189237594605">
        <ele>1630</ele>
        <time>2025-02-23T13:23:08Z</time>
      </trkpt>
      <trkpt lat="46.15182688459754" lon="8.195306835696101">
        <ele>1630.27</ele>
        <time>2025-02-23T13:23:22Z</time>
      </trkpt>
      <trkpt lat="46.15173015743494" lon="8.195396102964878">
        <ele>1629.6600000000001</ele>
        <time>2025-02-23T13:23:31Z</time>
      </trkpt>
      <trkpt lat="46.15164021961391" lon="8.1954450532794">
        <ele>1628.76</ele>
        <time>2025-02-23T13:23:40Z</time>
      </trkpt>
      <trkpt lat="46.151558747515082" lon="8.19552468135953">
        <ele>1628.1099999999999</ele>
        <time>2025-02-23T13:23:49Z</time>
      </trkpt>
      <trkpt lat="46.151508959010243" lon="8.195661390200257">
        <ele>1627.8900000000001</ele>
        <time>2025-02-23T13:23:58Z</time>
      </trkpt>
      <trkpt lat="46.151513485237956" lon="8.195804050192237">
        <ele>1627.74</ele>
        <time>2025-02-23T13:24:07Z</time>
      </trkpt>
      <trkpt lat="46.151542151346803" lon="8.195920810103416">
        <ele>1627.71</ele>
        <time>2025-02-23T13:24:17Z</time>
      </trkpt>
      <trkpt lat="46.151580372825265" lon="8.196049639955163">
        <ele>1627.5</ele>
        <time>2025-02-23T13:24:28Z</time>
      </trkpt>
      <trkpt lat="46.151527902111411" lon="8.196034468710423">
        <ele>1626.45</ele>
        <time>2025-02-23T13:26:19Z</time>
      </trkpt>
      <trkpt lat="46.151553215458989" lon="8.1960304453969">
        <ele>1627.51</ele>
        <time>2025-02-23T13:28:21Z</time>
      </trkpt>
    </trkseg>
  </trk>

</gpx>